Observation data for Snyder SSW on 11/17/2019      Previous  Date       Current Mesonet Observations  Soil Data  Daily Summary Page  Observations in Plain Language
KWT1 170600Z 20006KT 07/03 A2998 RMK A01 T00680034  RH  079%=      5-min Rain = 0
KWT1 170601Z 19007KT 07/03 A2998 RMK A01 T00670034  RH  079%=      5-min Rain = 0
KWT1 170602Z 19007KT 07/03 A2998 RMK A01 T00670034  RH  079%=      5-min Rain = 0
KWT1 170603Z 19007KT 07/03 A2998 RMK A01 T00670034  RH  080%=      5-min Rain = 0
KWT1 170604Z 19007KT 07/03 A2998 RMK A01 T00660034  RH  080%=      5-min Rain = 0
KWT1 170605Z 20007KT 07/03 A2998 RMK A01 T00660034  RH  080%=      5-min Rain = 0
KWT1 170606Z 19007KT 07/03 A2998 RMK A01 T00660034  RH  080%=      5-min Rain = 0
KWT1 170607Z 20007KT 07/03 A2998 RMK A01 T00660034  RH  080%=      5-min Rain = 0
KWT1 170608Z 20007KT 07/03 A2998 RMK A01 T00660034  RH  080%=      5-min Rain = 0
KWT1 170609Z 20007KT 07/03 A2998 RMK A01 T00660034  RH  080%=      5-min Rain = 0
KWT1 170610Z 20007KT 07/04 A2998 RMK A01 T00660035  RH  080%=      5-min Rain = 0
KWT1 170611Z 20006KT 07/04 A2999 RMK A01 T00660035  RH  080%=      5-min Rain = 0
KWT1 170612Z 20006KT 07/04 A2999 RMK A01 T00670035  RH  080%=      5-min Rain = 0
KWT1 170613Z 20007KT 07/04 A2999 RMK A01 T00660035  RH  080%=      5-min Rain = 0
KWT1 170614Z 20007KT 07/04 A2999 RMK A01 T00660035  RH  080%=      5-min Rain = 0
KWT1 170615Z 20007KT 07/04 A2999 RMK A01 T00670035  RH  080%=      5-min Rain = 0
KWT1 170616Z 20007KT 07/04 A2999 RMK A01 T00670035  RH  080%=      5-min Rain = 0
KWT1 170617Z 20007KT 07/04 A2999 RMK A01 T00670035  RH  080%=      5-min Rain = 0
KWT1 170618Z 20007KT 07/03 A2999 RMK A01 T00670034  RH  080%=      5-min Rain = 0
KWT1 170619Z 20006KT 07/04 A2999 RMK A01 T00670035  RH  080%=      5-min Rain = 0
KWT1 170620Z 20006KT 07/03 A2999 RMK A01 T00660034  RH  080%=      5-min Rain = 0
KWT1 170621Z 20006KT 07/03 A2999 RMK A01 T00660034  RH  080%=      5-min Rain = 0
KWT1 170622Z 20006KT 07/03 A2999 RMK A01 T00650034  RH  080%=      5-min Rain = 0
KWT1 170623Z 20007KT 07/03 A2999 RMK A01 T00650034  RH  081%=      5-min Rain = 0
KWT1 170624Z 20007KT 06/03 A2999 RMK A01 T00640033  RH  081%=      5-min Rain = 0
KWT1 170625Z 19008KT 06/03 A2999 RMK A01 T00630033  RH  081%=      5-min Rain = 0
KWT1 170626Z 19008KT 06/03 A2999 RMK A01 T00630033  RH  081%=      5-min Rain = 0
KWT1 170627Z 19008KT 06/03 A2999 RMK A01 T00630033  RH  082%=      5-min Rain = 0
KWT1 170628Z 19008KT 06/03 A2999 RMK A01 T00620033  RH  082%=      5-min Rain = 0
KWT1 170629Z 19008KT 06/03 A2999 RMK A01 T00620033  RH  082%=      5-min Rain = 0
KWT1 170630Z 19008KT 06/03 A2998 RMK A01 T00610033  RH  082%=      5-min Rain = 0
KWT1 170631Z 19008KT 06/03 A2998 RMK A01 T00610033  RH  082%=      5-min Rain = 0
KWT1 170632Z 19008KT 06/03 A2998 RMK A01 T00610033  RH  082%=      5-min Rain = 0
KWT1 170633Z 20008KT 06/03 A2998 RMK A01 T00610033  RH  082%=      5-min Rain = 0
KWT1 170634Z 19008KT 06/03 A2998 RMK A01 T00610034  RH  082%=      5-min Rain = 0
KWT1 170635Z 19008KT 06/03 A2998 RMK A01 T00620034  RH  082%=      5-min Rain = 0
KWT1 170636Z 19008KT 06/03 A2998 RMK A01 T00620034  RH  082%=      5-min Rain = 0
KWT1 170637Z 19007KT 06/03 A2998 RMK A01 T00620034  RH  082%=      5-min Rain = 0
KWT1 170638Z 19007KT 06/03 A2998 RMK A01 T00620034  RH  082%=      5-min Rain = 0
KWT1 170639Z 19007KT 06/03 A2998 RMK A01 T00620034  RH  082%=      5-min Rain = 0
KWT1 170640Z 20007KT 06/03 A2998 RMK A01 T00620034  RH  082%=      5-min Rain = 0
KWT1 170641Z 20007KT 06/03 A2998 RMK A01 T00620034  RH  082%=      5-min Rain = 0
KWT1 170642Z 20006KT 06/03 A2998 RMK A01 T00620034  RH  082%=      5-min Rain = 0
KWT1 170643Z 20006KT 06/04 A2998 RMK A01 T00630035  RH  082%=      5-min Rain = 0
KWT1 170644Z 20006KT 06/04 A2998 RMK A01 T00630035  RH  082%=      5-min Rain = 0
KWT1 170645Z 20006KT 06/04 A2998 RMK A01 T00640035  RH  082%=      5-min Rain = 0
KWT1 170646Z 20005KT 06/04 A2998 RMK A01 T00640035  RH  082%=      5-min Rain = 0
KWT1 170647Z 20005KT 06/04 A2998 RMK A01 T00640035  RH  082%=      5-min Rain = 0
KWT1 170648Z 20004KT 06/04 A2999 RMK A01 T00640035  RH  082%=      5-min Rain = 0
KWT1 170649Z 20004KT 06/04 A2999 RMK A01 T00630035  RH  082%=      5-min Rain = 0
KWT1 170650Z 21005KT 06/04 A2999 RMK A01 T00630035  RH  082%=      5-min Rain = 0
KWT1 170651Z 20005KT 06/04 A2999 RMK A01 T00630035  RH  082%=      5-min Rain = 0
KWT1 170652Z 20004KT 06/04 A2999 RMK A01 T00630035  RH  082%=      5-min Rain = 0
KWT1 170653Z 21004KT 06/04 A2999 RMK A01 T00630035  RH  082%=      5-min Rain = 0
KWT1 170654Z 21003KT 06/03 A2999 RMK A01 T00630034  RH  082%=      5-min Rain = 0
KWT1 170655Z 21003KT 06/03 A2999 RMK A01 T00630034  RH  082%=      5-min Rain = 0
KWT1 170656Z 21003KT 06/03 A2999 RMK A01 T00620034  RH  082%=      5-min Rain = 0
KWT1 170657Z 21003KT 06/03 A2999 RMK A01 T00620034  RH  082%=      5-min Rain = 0
KWT1 170658Z 21003KT 06/03 A2999 RMK A01 T00620034  RH  082%=      5-min Rain = 0
KWT1 170659Z 21003KT 06/03 A2999 RMK A01 T00620034  RH  083%=      5-min Rain = 0
KWT1 170700Z 21003KT 06/03 A2999 RMK A01 T00610034  RH  083%=      5-min Rain = 0
KWT1 170701Z 21003KT 06/03 A2999 RMK A01 T00610034  RH  083%=      5-min Rain = 0
KWT1 170702Z 20003KT 06/03 A2999 RMK A01 T00610034  RH  083%=      5-min Rain = 0
KWT1 170703Z 19003KT 06/03 A2999 RMK A01 T00610034  RH  083%=      5-min Rain = 0
KWT1 170704Z 19004KT 06/03 A2999 RMK A01 T00600034  RH  083%=      5-min Rain = 0
KWT1 170705Z 19004KT 06/03 A2999 RMK A01 T00600033  RH  083%=      5-min Rain = 0
KWT1 170706Z 18005KT 06/03 A2999 RMK A01 T00600033  RH  083%=      5-min Rain = 0
KWT1 170707Z 18005KT 06/03 A2999 RMK A01 T00590033  RH  083%=      5-min Rain = 0
KWT1 170708Z 18005KT 06/03 A2999 RMK A01 T00580032  RH  083%=      5-min Rain = 0
KWT1 170709Z 18005KT 06/03 A2999 RMK A01 T00570031  RH  084%=      5-min Rain = 0
KWT1 170710Z 18005KT 06/03 A2999 RMK A01 T00560031  RH  084%=      5-min Rain = 0
KWT1 170711Z 18005KT 06/03 A2999 RMK A01 T00560031  RH  084%=      5-min Rain = 0
KWT1 170712Z 18006KT 06/03 A2999 RMK A01 T00550031  RH  084%=      5-min Rain = 0
KWT1 170713Z 18006KT 06/03 A2999 RMK A01 T00550031  RH  085%=      5-min Rain = 0
KWT1 170714Z 18006KT 05/03 A2999 RMK A01 T00540031  RH  085%=      5-min Rain = 0
KWT1 170715Z 19006KT 05/03 A2999 RMK A01 T00530030  RH  085%=      5-min Rain = 0
KWT1 170716Z 18006KT 05/03 A2999 RMK A01 T00530030  RH  085%=      5-min Rain = 0
KWT1 170717Z 18007KT 05/03 A2999 RMK A01 T00530030  RH  086%=      5-min Rain = 0
KWT1 170718Z 18007KT 05/03 A2998 RMK A01 T00520030  RH  086%=      5-min Rain = 0
KWT1 170719Z 18007KT 05/03 A2999 RMK A01 T00520030  RH  086%=      5-min Rain = 0
KWT1 170720Z 18007KT 05/03 A2999 RMK A01 T00520031  RH  086%=      5-min Rain = 0
KWT1 170721Z 18007KT 05/03 A2999 RMK A01 T00520031  RH  086%=      5-min Rain = 0
KWT1 170722Z 18006KT 05/03 A2999 RMK A01 T00520030  RH  086%=      5-min Rain = 0
KWT1 170723Z 18006KT 05/03 A2999 RMK A01 T00530031  RH  086%=      5-min Rain = 0
KWT1 170724Z 18006KT 05/03 A2999 RMK A01 T00530031  RH  086%=      5-min Rain = 0
KWT1 170725Z 18006KT 05/03 A2999 RMK A01 T00530031  RH  086%=      5-min Rain = 0
KWT1 170726Z 18006KT 05/03 A2999 RMK A01 T00530031  RH  086%=      5-min Rain = 0
KWT1 170727Z 18006KT 05/03 A2999 RMK A01 T00540031  RH  086%=      5-min Rain = 0
KWT1 170728Z 18006KT 05/03 A2999 RMK A01 T00540031  RH  086%=      5-min Rain = 0
KWT1 170729Z 18006KT 05/03 A2999 RMK A01 T00540031  RH  085%=      5-min Rain = 0
KWT1 170730Z 18006KT 05/03 A2999 RMK A01 T00530031  RH  085%=      5-min Rain = 0
KWT1 170731Z 18007KT 05/03 A2999 RMK A01 T00540031  RH  086%=      5-min Rain = 0
KWT1 170732Z 18007KT 05/03 A2999 RMK A01 T00540032  RH  086%=      5-min Rain = 0
KWT1 170733Z 18007KT 05/03 A2999 RMK A01 T00540032  RH  086%=      5-min Rain = 0
KWT1 170734Z 18007KT 05/03 A2998 RMK A01 T00540031  RH  086%=      5-min Rain = 0
KWT1 170735Z 18007KT 05/03 A2998 RMK A01 T00530031  RH  086%=      5-min Rain = 0
KWT1 170736Z 18007KT 05/03 A2998 RMK A01 T00530032  RH  086%=      5-min Rain = 0
KWT1 170737Z 18006KT 05/03 A2998 RMK A01 T00530032  RH  086%=      5-min Rain = 0
KWT1 170738Z 19006KT 05/03 A2998 RMK A01 T00530032  RH  086%=      5-min Rain = 0
KWT1 170739Z 19006KT 05/03 A2998 RMK A01 T00540032  RH  086%=      5-min Rain = 0
KWT1 170740Z 19006KT 05/03 A2999 RMK A01 T00540033  RH  086%=      5-min Rain = 0
KWT1 170741Z 19006KT 05/03 A2999 RMK A01 T00540033  RH  086%=      5-min Rain = 0
KWT1 170742Z 19006KT 05/03 A2999 RMK A01 T00540032  RH  085%=      5-min Rain = 0
KWT1 170743Z 19007KT 05/03 A2999 RMK A01 T00540031  RH  085%=      5-min Rain = 0
KWT1 170744Z 19007KT 05/03 A2999 RMK A01 T00530031  RH  086%=      5-min Rain = 0
KWT1 170745Z 19007KT 05/03 A2999 RMK A01 T00530032  RH  086%=      5-min Rain = 0
KWT1 170746Z 19007KT 05/03 A2999 RMK A01 T00520031  RH  086%=      5-min Rain = 0
KWT1 170747Z 19007KT 05/03 A2998 RMK A01 T00520031  RH  086%=      5-min Rain = 0
KWT1 170748Z 19007KT 05/03 A2998 RMK A01 T00520031  RH  086%=      5-min Rain = 0
KWT1 170749Z 19007KT 05/03 A2998 RMK A01 T00520031  RH  087%=      5-min Rain = 0
KWT1 170750Z 19007KT 05/03 A2998 RMK A01 T00520032  RH  087%=      5-min Rain = 0
KWT1 170751Z 19007KT 05/03 A2998 RMK A01 T00530032  RH  087%=      5-min Rain = 0
KWT1 170752Z 19007KT 05/03 A2998 RMK A01 T00530033  RH  087%=      5-min Rain = 0
KWT1 170753Z 19007KT 05/03 A2998 RMK A01 T00530032  RH  086%=      5-min Rain = 0
KWT1 170754Z 19007KT 05/03 A2998 RMK A01 T00530032  RH  086%=      5-min Rain = 0
KWT1 170755Z 19007KT 05/03 A2998 RMK A01 T00530033  RH  087%=      5-min Rain = 0
KWT1 170756Z 19007KT 05/03 A2998 RMK A01 T00530033  RH  087%=      5-min Rain = 0
KWT1 170757Z 19007KT 05/03 A2998 RMK A01 T00530032  RH  086%=      5-min Rain = 0
KWT1 170758Z 19007KT 05/03 A2998 RMK A01 T00530032  RH  087%=      5-min Rain = 0
KWT1 170759Z 19006KT 05/03 A2998 RMK A01 T00530032  RH  087%=      5-min Rain = 0
KWT1 170800Z 19006KT 05/03 A2998 RMK A01 T00530033  RH  087%=      5-min Rain = 0
KWT1 170801Z 19006KT 05/03 A2998 RMK A01 T00530033  RH  087%=      5-min Rain = 0
KWT1 170802Z 19006KT 05/03 A2998 RMK A01 T00530033  RH  087%=      5-min Rain = 0
KWT1 170803Z 19006KT 05/03 A2998 RMK A01 T00530033  RH  087%=      5-min Rain = 0
KWT1 170804Z 18006KT 05/03 A2998 RMK A01 T00530033  RH  087%=      5-min Rain = 0
KWT1 170805Z 18006KT 05/03 A2998 RMK A01 T00530033  RH  087%=      5-min Rain = 0
KWT1 170806Z 18006KT 05/03 A2998 RMK A01 T00530033  RH  087%=      5-min Rain = 0
KWT1 170807Z 18006KT 05/03 A2998 RMK A01 T00530033  RH  087%=      5-min Rain = 0
KWT1 170808Z 18005KT 05/03 A2998 RMK A01 T00530033  RH  087%=      5-min Rain = 0
KWT1 170809Z 18005KT 05/03 A2998 RMK A01 T00530033  RH  087%=      5-min Rain = 0
KWT1 170810Z 17005KT 05/03 A2998 RMK A01 T00530033  RH  087%=      5-min Rain = 0
KWT1 170811Z 17005KT 05/03 A2998 RMK A01 T00530033  RH  087%=      5-min Rain = 0
KWT1 170812Z 17005KT 05/03 A2998 RMK A01 T00520032  RH  087%=      5-min Rain = 0
KWT1 170813Z 17005KT 05/03 A2998 RMK A01 T00520032  RH  087%=      5-min Rain = 0
KWT1 170814Z 18006KT 05/03 A2998 RMK A01 T00520032  RH  087%=      5-min Rain = 0
KWT1 170815Z 18006KT 05/03 A2998 RMK A01 T00520032  RH  087%=      5-min Rain = 0
KWT1 170816Z 18007KT 05/03 A2998 RMK A01 T00520033  RH  087%=      5-min Rain = 0
KWT1 170817Z 18007KT 05/03 A2998 RMK A01 T00520033  RH  087%=      5-min Rain = 0
KWT1 170818Z 18007KT 05/03 A2998 RMK A01 T00520033  RH  087%=      5-min Rain = 0
KWT1 170819Z 18007KT 05/03 A2998 RMK A01 T00520033  RH  087%=      5-min Rain = 0
KWT1 170820Z 18007KT 05/03 A2998 RMK A01 T00530033  RH  087%=      5-min Rain = 0
KWT1 170821Z 18007KT 05/03 A2998 RMK A01 T00530033  RH  087%=      5-min Rain = 0
KWT1 170822Z 18007KT 05/03 A2998 RMK A01 T00530032  RH  087%=      5-min Rain = 0
KWT1 170823Z 18007KT 05/03 A2998 RMK A01 T00530033  RH  087%=      5-min Rain = 0
KWT1 170824Z 18007KT 05/03 A2998 RMK A01 T00530033  RH  087%=      5-min Rain = 0
KWT1 170825Z 18007KT 05/03 A2998 RMK A01 T00530033  RH  087%=      5-min Rain = 0
KWT1 170826Z 18006KT 05/03 A2998 RMK A01 T00530033  RH  087%=      5-min Rain = 0
KWT1 170827Z 18006KT 05/03 A2998 RMK A01 T00540034  RH  087%=      5-min Rain = 0
KWT1 170828Z 18005KT 05/03 A2998 RMK A01 T00540034  RH  087%=      5-min Rain = 0
KWT1 170829Z 17005KT 05/03 A2998 RMK A01 T00540034  RH  087%=      5-min Rain = 0
KWT1 170830Z 17005KT 05/03 A2998 RMK A01 T00540034  RH  087%=      5-min Rain = 0
KWT1 170831Z 17005KT 05/03 A2998 RMK A01 T00540034  RH  087%=      5-min Rain = 0
KWT1 170832Z 17004KT 06/03 A2998 RMK A01 T00550034  RH  087%=      5-min Rain = 0
KWT1 170833Z 17004KT 06/03 A2998 RMK A01 T00550034  RH  087%=      5-min Rain = 0
KWT1 170834Z 18004KT 06/03 A2998 RMK A01 T00550034  RH  087%=      5-min Rain = 0
KWT1 170835Z 18003KT 06/03 A2998 RMK A01 T00550034  RH  087%=      5-min Rain = 0
KWT1 170836Z 18003KT 05/03 A2998 RMK A01 T00540034  RH  087%=      5-min Rain = 0
KWT1 170837Z 18002KT 05/03 A2998 RMK A01 T00540034  RH  087%=      5-min Rain = 0
KWT1 170838Z 18002KT 05/03 A2998 RMK A01 T00540034  RH  087%=      5-min Rain = 0
KWT1 170839Z 17002KT 05/03 A2998 RMK A01 T00530033  RH  087%=      5-min Rain = 0
KWT1 170840Z 18002KT 05/03 A2998 RMK A01 T00520031  RH  087%=      5-min Rain = 0
KWT1 170841Z 18002KT 05/03 A2998 RMK A01 T00510030  RH  087%=      5-min Rain = 0
KWT1 170842Z 18002KT 05/03 A2998 RMK A01 T00500030  RH  087%=      5-min Rain = 0
KWT1 170843Z 18002KT 05/03 A2998 RMK A01 T00490030  RH  088%=      5-min Rain = 0
KWT1 170844Z 19001KT 05/03 A2998 RMK A01 T00490032  RH  088%=      5-min Rain = 0
KWT1 170845Z 18001KT 05/03 A2998 RMK A01 T00490032  RH  089%=      5-min Rain = 0
KWT1 170846Z 19002KT 05/03 A2998 RMK A01 T00490032  RH  089%=      5-min Rain = 0
KWT1 170847Z 19002KT 05/03 A2997 RMK A01 T00480032  RH  089%=      5-min Rain = 0
KWT1 170848Z 19002KT 05/03 A2997 RMK A01 T00490033  RH  089%=      5-min Rain = 0
KWT1 170849Z 19002KT 05/03 A2997 RMK A01 T00490033  RH  090%=      5-min Rain = 0
KWT1 170850Z 19003KT 05/03 A2997 RMK A01 T00490033  RH  090%=      5-min Rain = 0
KWT1 170851Z 19003KT 05/03 A2997 RMK A01 T00490034  RH  090%=      5-min Rain = 0
KWT1 170852Z 19003KT 05/03 A2997 RMK A01 T00500034  RH  090%=      5-min Rain = 0
KWT1 170853Z 18004KT 05/03 A2997 RMK A01 T00500034  RH  090%=      5-min Rain = 0
KWT1 170854Z 18004KT 05/04 A2997 RMK A01 T00510035  RH  090%=      5-min Rain = 0
KWT1 170855Z 18004KT 05/04 A2997 RMK A01 T00520035  RH  089%=      5-min Rain = 0
KWT1 170856Z 18005KT 05/03 A2997 RMK A01 T00520034  RH  089%=      5-min Rain = 0
KWT1 170857Z 18006KT 05/03 A2997 RMK A01 T00520033  RH  088%=      5-min Rain = 0
KWT1 170858Z 18006KT 05/03 A2997 RMK A01 T00510032  RH  088%=      5-min Rain = 0
KWT1 170859Z 18006KT 05/03 A2997 RMK A01 T00510032  RH  088%=      5-min Rain = 0
KWT1 170900Z 18006KT 05/03 A2997 RMK A01 T00500031  RH  088%=      5-min Rain = 0
KWT1 170901Z 19006KT 05/03 A2997 RMK A01 T00500032  RH  088%=      5-min Rain = 0
KWT1 170902Z 19006KT 05/03 A2997 RMK A01 T00510033  RH  088%=      5-min Rain = 0
KWT1 170903Z 19007KT 05/03 A2997 RMK A01 T00510033  RH  088%=      5-min Rain = 0
KWT1 170904Z 19007KT 05/03 A2997 RMK A01 T00510033  RH  088%=      5-min Rain = 0
KWT1 170905Z 19007KT 05/03 A2997 RMK A01 T00520034  RH  088%=      5-min Rain = 0
KWT1 170906Z 19007KT 05/03 A2997 RMK A01 T00520033  RH  088%=      5-min Rain = 0
KWT1 170907Z 19007KT 05/03 A2997 RMK A01 T00520033  RH  088%=      5-min Rain = 0
KWT1 170908Z 19007KT 05/03 A2997 RMK A01 T00520034  RH  088%=      5-min Rain = 0
KWT1 170909Z 19007KT 05/03 A2997 RMK A01 T00520034  RH  088%=      5-min Rain = 0
KWT1 170910Z 19007KT 05/03 A2997 RMK A01 T00520034  RH  088%=      5-min Rain = 0
KWT1 170911Z 19007KT 05/03 A2997 RMK A01 T00530034  RH  088%=      5-min Rain = 0
KWT1 170912Z 20006KT 05/03 A2997 RMK A01 T00530034  RH  088%=      5-min Rain = 0
KWT1 170913Z 19006KT 05/03 A2997 RMK A01 T00530034  RH  088%=      5-min Rain = 0
KWT1 170914Z 20006KT 05/03 A2997 RMK A01 T00530034  RH  088%=      5-min Rain = 0
KWT1 170915Z 20006KT 05/03 A2997 RMK A01 T00530034  RH  088%=      5-min Rain = 0
KWT1 170916Z 20005KT 05/03 A2997 RMK A01 T00520034  RH  088%=      5-min Rain = 0
KWT1 170917Z 20005KT 05/03 A2997 RMK A01 T00520033  RH  088%=      5-min Rain = 0
KWT1 170918Z 20005KT 05/03 A2997 RMK A01 T00510033  RH  088%=      5-min Rain = 0
KWT1 170919Z 20005KT 05/03 A2997 RMK A01 T00510034  RH  088%=      5-min Rain = 0
KWT1 170920Z 19005KT 05/03 A2997 RMK A01 T00510033  RH  088%=      5-min Rain = 0
KWT1 170921Z 19005KT 05/03 A2997 RMK A01 T00510033  RH  088%=      5-min Rain = 0
KWT1 170922Z 19005KT 05/03 A2997 RMK A01 T00510033  RH  088%=      5-min Rain = 0
KWT1 170923Z 19004KT 05/03 A2997 RMK A01 T00500033  RH  089%=      5-min Rain = 0
KWT1 170924Z 19004KT 05/03 A2997 RMK A01 T00500033  RH  089%=      5-min Rain = 0
KWT1 170925Z 19004KT 05/03 A2997 RMK A01 T00500032  RH  089%=      5-min Rain = 0
KWT1 170926Z 20003KT 05/03 A2997 RMK A01 T00500032  RH  089%=      5-min Rain = 0
KWT1 170927Z 20003KT 05/03 A2997 RMK A01 T00490032  RH  089%=      5-min Rain = 0
KWT1 170928Z 20003KT 05/03 A2997 RMK A01 T00490032  RH  089%=      5-min Rain = 0
KWT1 170929Z 21002KT 05/03 A2998 RMK A01 T00490032  RH  089%=      5-min Rain = 0
KWT1 170930Z 21002KT 05/03 A2998 RMK A01 T00480032  RH  089%=      5-min Rain = 0
KWT1 170931Z 21003KT 05/03 A2998 RMK A01 T00480032  RH  089%=      5-min Rain = 0
KWT1 170932Z 20003KT 05/03 A2998 RMK A01 T00480032  RH  089%=      5-min Rain = 0
KWT1 170933Z 20004KT 05/03 A2997 RMK A01 T00470031  RH  090%=      5-min Rain = 0
KWT1 170934Z 19005KT 05/03 A2997 RMK A01 T00470031  RH  090%=      5-min Rain = 0
KWT1 170935Z 19005KT 05/03 A2997 RMK A01 T00470031  RH  090%=      5-min Rain = 0
KWT1 170936Z 20005KT 05/03 A2997 RMK A01 T00460030  RH  090%=      5-min Rain = 0
KWT1 170937Z 20005KT 05/03 A2997 RMK A01 T00450029  RH  090%=      5-min Rain = 0
KWT1 170938Z 20005KT 04/03 A2998 RMK A01 T00440028  RH  090%=      5-min Rain = 0
KWT1 170939Z 20005KT 04/03 A2998 RMK A01 T00430029  RH  090%=      5-min Rain = 0
KWT1 170940Z 20005KT 04/03 A2998 RMK A01 T00430029  RH  091%=      5-min Rain = 0
KWT1 170941Z 20005KT 04/03 A2998 RMK A01 T00440030  RH  091%=      5-min Rain = 0
KWT1 170942Z 21005KT 05/03 A2998 RMK A01 T00450031  RH  091%=      5-min Rain = 0
KWT1 170943Z 20005KT 05/03 A2998 RMK A01 T00450031  RH  091%=      5-min Rain = 0
KWT1 170944Z 20005KT 05/03 A2998 RMK A01 T00450031  RH  090%=      5-min Rain = 0
KWT1 170945Z 21005KT 05/03 A2998 RMK A01 T00450030  RH  090%=      5-min Rain = 0
KWT1 170946Z 21006KT 05/03 A2998 RMK A01 T00450030  RH  090%=      5-min Rain = 0
KWT1 170947Z 21006KT 05/03 A2998 RMK A01 T00460030  RH  090%=      5-min Rain = 0
KWT1 170948Z 21006KT 05/03 A2998 RMK A01 T00450030  RH  090%=      5-min Rain = 0
KWT1 170949Z 21006KT 05/03 A2998 RMK A01 T00450030  RH  090%=      5-min Rain = 0
KWT1 170950Z 20006KT 05/03 A2997 RMK A01 T00460031  RH  090%=      5-min Rain = 0
KWT1 170951Z 20007KT 05/03 A2997 RMK A01 T00460031  RH  090%=      5-min Rain = 0
KWT1 170952Z 20007KT 05/03 A2997 RMK A01 T00460031  RH  090%=      5-min Rain = 0
KWT1 170953Z 20007KT 05/03 A2997 RMK A01 T00460030  RH  089%=      5-min Rain = 0
KWT1 170954Z 20006KT 05/03 A2997 RMK A01 T00460030  RH  089%=      5-min Rain = 0
KWT1 170955Z 21006KT 05/03 A2998 RMK A01 T00460030  RH  089%=      5-min Rain = 0
KWT1 170956Z 21006KT 05/03 A2998 RMK A01 T00460031  RH  090%=      5-min Rain = 0
KWT1 170957Z 21006KT 05/03 A2997 RMK A01 T00470032  RH  090%=      5-min Rain = 0
KWT1 170958Z 21007KT 05/03 A2997 RMK A01 T00480033  RH  090%=      5-min Rain = 0
KWT1 170959Z 21007KT 05/03 A2997 RMK A01 T00480032  RH  089%=      5-min Rain = 0
KWT1 171000Z 21006KT 05/03 A2997 RMK A01 T00480031  RH  089%=      5-min Rain = 0
KWT1 171001Z 21007KT 05/03 A2997 RMK A01 T00480031  RH  089%=      5-min Rain = 0
KWT1 171002Z 21007KT 05/03 A2997 RMK A01 T00480032  RH  089%=      5-min Rain = 0
KWT1 171003Z 21007KT 05/03 A2997 RMK A01 T00480032  RH  089%=      5-min Rain = 0
KWT1 171004Z 21007KT 05/03 A2997 RMK A01 T00480032  RH  089%=      5-min Rain = 0
KWT1 171005Z 21007KT 05/03 A2997 RMK A01 T00480031  RH  089%=      5-min Rain = 0
KWT1 171006Z 21007KT 05/03 A2997 RMK A01 T00480032  RH  089%=      5-min Rain = 0
KWT1 171007Z 21007KT 05/03 A2997 RMK A01 T00480031  RH  089%=      5-min Rain = 0
KWT1 171008Z 21006KT 05/03 A2997 RMK A01 T00480031  RH  089%=      5-min Rain = 0
KWT1 171009Z 21006KT 05/03 A2997 RMK A01 T00470031  RH  089%=      5-min Rain = 0
KWT1 171010Z 21006KT 05/03 A2997 RMK A01 T00470031  RH  089%=      5-min Rain = 0
KWT1 171011Z 21006KT 05/03 A2997 RMK A01 T00470031  RH  089%=      5-min Rain = 0
KWT1 171012Z 20006KT 05/03 A2997 RMK A01 T00460030  RH  089%=      5-min Rain = 0
KWT1 171013Z 20006KT 05/03 A2997 RMK A01 T00460030  RH  089%=      5-min Rain = 0
KWT1 171014Z 20006KT 05/03 A2997 RMK A01 T00450029  RH  090%=      5-min Rain = 0
KWT1 171015Z 20006KT 04/03 A2997 RMK A01 T00440029  RH  090%=      5-min Rain = 0
KWT1 171016Z 20005KT 04/03 A2997 RMK A01 T00430028  RH  090%=      5-min Rain = 0
KWT1 171017Z 21005KT 04/03 A2997 RMK A01 T00430029  RH  091%=      5-min Rain = 0
KWT1 171018Z 22004KT 04/03 A2997 RMK A01 T00430029  RH  091%=      5-min Rain = 0
KWT1 171019Z 22004KT 04/03 A2997 RMK A01 T00430029  RH  091%=      5-min Rain = 0
KWT1 171020Z 22004KT 04/03 A2997 RMK A01 T00430030  RH  091%=      5-min Rain = 0
KWT1 171021Z 21004KT 04/03 A2997 RMK A01 T00430030  RH  091%=      5-min Rain = 0
KWT1 171022Z 21003KT 04/03 A2997 RMK A01 T00440031  RH  092%=      5-min Rain = 0
KWT1 171023Z 21003KT 04/03 A2997 RMK A01 T00440031  RH  092%=      5-min Rain = 0
KWT1 171024Z 21003KT 04/03 A2997 RMK A01 T00440032  RH  092%=      5-min Rain = 0
KWT1 171025Z 21004KT 04/03 A2997 RMK A01 T00440032  RH  091%=      5-min Rain = 0
KWT1 171026Z 21003KT 05/03 A2997 RMK A01 T00450032  RH  091%=      5-min Rain = 0
KWT1 171027Z 21004KT 05/03 A2997 RMK A01 T00450032  RH  091%=      5-min Rain = 0
KWT1 171028Z 21004KT 05/03 A2997 RMK A01 T00460032  RH  091%=      5-min Rain = 0
KWT1 171029Z 21004KT 05/03 A2997 RMK A01 T00460033  RH  091%=      5-min Rain = 0
KWT1 171030Z 21004KT 05/03 A2998 RMK A01 T00460032  RH  091%=      5-min Rain = 0
KWT1 171031Z 22003KT 05/03 A2998 RMK A01 T00460032  RH  091%=      5-min Rain = 0
KWT1 171032Z 23003KT 05/03 A2998 RMK A01 T00470032  RH  090%=      5-min Rain = 0
KWT1 171033Z 24003KT 05/03 A2998 RMK A01 T00470032  RH  090%=      5-min Rain = 0
KWT1 171034Z 25003KT 05/03 A2998 RMK A01 T00460030  RH  090%=      5-min Rain = 0
KWT1 171035Z 25003KT 04/03 A2998 RMK A01 T00430027  RH  089%=      5-min Rain = 0
KWT1 171036Z 24003KT 04/03 A2998 RMK A01 T00420027  RH  090%=      5-min Rain = 0
KWT1 171037Z 24003KT 04/03 A2998 RMK A01 T00430029  RH  091%=      5-min Rain = 0
KWT1 171038Z 24004KT 05/03 A2998 RMK A01 T00450032  RH  092%=      5-min Rain = 0
KWT1 171039Z 23003KT 05/03 A2998 RMK A01 T00460033  RH  092%=      5-min Rain = 0
KWT1 171040Z 23003KT 05/03 A2998 RMK A01 T00460033  RH  091%=      5-min Rain = 0
KWT1 171041Z 23003KT 05/03 A2998 RMK A01 T00460032  RH  091%=      5-min Rain = 0
KWT1 171042Z 23003KT 05/03 A2998 RMK A01 T00460031  RH  090%=      5-min Rain = 0
KWT1 171043Z 23003KT 05/03 A2998 RMK A01 T00450030  RH  090%=      5-min Rain = 0
KWT1 171044Z 23003KT 05/03 A2998 RMK A01 T00450030  RH  090%=      5-min Rain = 0
KWT1 171045Z 23003KT 04/03 A2998 RMK A01 T00440030  RH  090%=      5-min Rain = 0
KWT1 171046Z 23003KT 05/03 A2998 RMK A01 T00450030  RH  090%=      5-min Rain = 0
KWT1 171047Z 23004KT 04/03 A2998 RMK A01 T00440030  RH  091%=      5-min Rain = 0
KWT1 171048Z 22004KT 04/03 A2998 RMK A01 T00440030  RH  091%=      5-min Rain = 0
KWT1 171049Z 22004KT 04/03 A2998 RMK A01 T00440030  RH  091%=      5-min Rain = 0
KWT1 171050Z 22004KT 04/03 A2998 RMK A01 T00430029  RH  091%=      5-min Rain = 0
KWT1 171051Z 22004KT 04/03 A2998 RMK A01 T00430030  RH  091%=      5-min Rain = 0
KWT1 171052Z 22004KT 04/03 A2998 RMK A01 T00430030  RH  091%=      5-min Rain = 0
KWT1 171053Z 22004KT 04/03 A2998 RMK A01 T00430030  RH  091%=      5-min Rain = 0
KWT1 171054Z 22005KT 04/03 A2998 RMK A01 T00430030  RH  091%=      5-min Rain = 0
KWT1 171055Z 22005KT 04/03 A2998 RMK A01 T00430032  RH  092%=      5-min Rain = 0
KWT1 171056Z 22005KT 05/03 A2998 RMK A01 T00450033  RH  092%=      5-min Rain = 0
KWT1 171057Z 23005KT 05/03 A2999 RMK A01 T00460034  RH  092%=      5-min Rain = 0
KWT1 171058Z 23004KT 05/04 A2999 RMK A01 T00470035  RH  092%=      5-min Rain = 0
KWT1 171059Z 23005KT 05/04 A2999 RMK A01 T00480035  RH  092%=      5-min Rain = 0
KWT1 171100Z 23005KT 05/04 A2999 RMK A01 T00490035  RH  091%=      5-min Rain = 0
KWT1 171101Z 23004KT 05/04 A2999 RMK A01 T00490035  RH  090%=      5-min Rain = 0
KWT1 171102Z 23004KT 05/03 A2999 RMK A01 T00490034  RH  090%=      5-min Rain = 0
KWT1 171103Z 23003KT 05/03 A2999 RMK A01 T00490034  RH  090%=      5-min Rain = 0
KWT1 171104Z 23003KT 05/03 A2999 RMK A01 T00490034  RH  090%=      5-min Rain = 0
KWT1 171105Z 23003KT 05/03 A2999 RMK A01 T00490034  RH  090%=      5-min Rain = 0
KWT1 171106Z 24003KT 05/04 A2999 RMK A01 T00500035  RH  090%=      5-min Rain = 0
KWT1 171107Z 24003KT 05/04 A2999 RMK A01 T00500036  RH  090%=      5-min Rain = 0
KWT1 171108Z 23003KT 05/04 A2999 RMK A01 T00520037  RH  090%=      5-min Rain = 0
KWT1 171109Z 24003KT 05/04 A2999 RMK A01 T00530038  RH  090%=      5-min Rain = 0
KWT1 171110Z 23003KT 05/04 A2999 RMK A01 T00530037  RH  089%=      5-min Rain = 0
KWT1 171111Z 23003KT 05/04 A2999 RMK A01 T00540037  RH  089%=      5-min Rain = 0
KWT1 171112Z 23004KT 05/04 A2999 RMK A01 T00540037  RH  089%=      5-min Rain = 0
KWT1 171113Z 25004KT 05/04 A2999 RMK A01 T00540037  RH  089%=      5-min Rain = 0
KWT1 171114Z 25003KT 05/04 A2999 RMK A01 T00540037  RH  088%=      5-min Rain = 0
KWT1 171115Z 25002KT 05/03 A30 RMK A01 T00530034  RH  088%=      5-min Rain = 0
KWT1 171116Z 25002KT 05/03 A30 RMK A01 T00520033  RH  087%=      5-min Rain = 0
KWT1 171117Z 25002KT 05/03 A30 RMK A01 T00500030  RH  087%=      5-min Rain = 0
KWT1 171118Z 24002KT 05/03 A2999 RMK A01 T00480028  RH  087%=      5-min Rain = 0
KWT1 171119Z 23002KT 05/03 A2999 RMK A01 T00460028  RH  088%=      5-min Rain = 0
KWT1 171120Z 23002KT 05/03 A2999 RMK A01 T00450029  RH  089%=      5-min Rain = 0
KWT1 171121Z 25002KT 05/03 A2999 RMK A01 T00450030  RH  090%=      5-min Rain = 0
KWT1 171122Z 27002KT 04/03 A30 RMK A01 T00440029  RH  090%=      5-min Rain = 0
KWT1 171123Z 28002KT 04/03 A30 RMK A01 T00440029  RH  090%=      5-min Rain = 0
KWT1 171124Z 28002KT 04/03 A30 RMK A01 T00420028  RH  090%=      5-min Rain = 0
KWT1 171125Z 28002KT 04/03 A30 RMK A01 T00420028  RH  091%=      5-min Rain = 0
KWT1 171126Z 31003KT 04/03 A30 RMK A01 T00420028  RH  091%=      5-min Rain = 0
KWT1 171127Z 32004KT 04/03 A30 RMK A01 T00410028  RH  091%=      5-min Rain = 0
KWT1 171128Z 31003KT 04/03 A30 RMK A01 T00390026  RH  091%=      5-min Rain = 0
KWT1 171129Z 32003KT 04/03 A30 RMK A01 T00390028  RH  092%=      5-min Rain = 0
KWT1 171130Z 32003KT 04/03 A30 RMK A01 T00400029  RH  093%=      5-min Rain = 0
KWT1 171131Z 32003KT 04/03 A3001 RMK A01 T00400029  RH  093%=      5-min Rain = 0
KWT1 171132Z 33003KT 04/03 A3001 RMK A01 T00400029  RH  093%=      5-min Rain = 0
KWT1 171133Z 34004KT 04/03 A3001 RMK A01 T00400029  RH  093%=      5-min Rain = 0
KWT1 171134Z 34003KT 04/03 A3001 RMK A01 T00400029  RH  093%=      5-min Rain = 0
KWT1 171135Z 34003KT 04/03 A3001 RMK A01 T00400030  RH  093%=      5-min Rain = 0
KWT1 171136Z 34003KT 04/03 A3001 RMK A01 T00400030  RH  093%=      5-min Rain = 0
KWT1 171137Z 35003KT 04/03 A3001 RMK A01 T00410031  RH  093%=      5-min Rain = 0
KWT1 171138Z 35004KT 04/03 A3001 RMK A01 T00410031  RH  093%=      5-min Rain = 0
KWT1 171139Z 35003KT 04/03 A3001 RMK A01 T00410030  RH  093%=      5-min Rain = 0
KWT1 171140Z 35003KT 04/03 A3001 RMK A01 T00410030  RH  093%=      5-min Rain = 0
KWT1 171141Z 35004KT 04/03 A3001 RMK A01 T00410030  RH  093%=      5-min Rain = 0
KWT1 171142Z 35004KT 04/03 A3001 RMK A01 T00410030  RH  093%=      5-min Rain = 0
KWT1 171143Z 35004KT 04/03 A3001 RMK A01 T00410029  RH  092%=      5-min Rain = 0
KWT1 171144Z 35004KT 04/03 A3002 RMK A01 T00410029  RH  092%=      5-min Rain = 0
KWT1 171145Z 36004KT 04/03 A3002 RMK A01 T00400029  RH  092%=      5-min Rain = 0
KWT1 171146Z 00003KT 04/03 A3002 RMK A01 T00390027  RH  092%=      5-min Rain = 0
KWT1 171147Z 00003KT 04/03 A3002 RMK A01 T00390027  RH  092%=      5-min Rain = 0
KWT1 171148Z 36003KT 04/03 A3002 RMK A01 T00380027  RH  092%=      5-min Rain = 0
KWT1 171149Z 00003KT 04/03 A3002 RMK A01 T00380027  RH  093%=      5-min Rain = 0
KWT1 171150Z 01003KT 04/03 A3002 RMK A01 T00380028  RH  093%=      5-min Rain = 0
KWT1 171151Z 02004KT 04/03 A3002 RMK A01 T00380028  RH  093%=      5-min Rain = 0
KWT1 171152Z 02004KT 04/03 A3002 RMK A01 T00380028  RH  093%=      5-min Rain = 0
KWT1 171153Z 02004KT 04/03 A3002 RMK A01 T00380028  RH  093%=      5-min Rain = 0
KWT1 171154Z 02003KT 04/03 A3002 RMK A01 T00370027  RH  093%=      5-min Rain = 0
KWT1 171155Z 02003KT 04/03 A3003 RMK A01 T00360027  RH  093%=      5-min Rain = 0
KWT1 171156Z 02003KT 04/03 A3003 RMK A01 T00360026  RH  093%=      5-min Rain = 0
KWT1 171157Z 02004KT 04/03 A3003 RMK A01 T00360026  RH  094%=      5-min Rain = 0
KWT1 171158Z 02003KT 04/03 A3003 RMK A01 T00360027  RH  094%=      5-min Rain = 0
KWT1 171159Z 01003KT 04/03 A3003 RMK A01 T00360027  RH  094%=      5-min Rain = 0
KWT1 171200Z 01003KT 04/03 A3003 RMK A01 T00350027  RH  094%=      5-min Rain = 0
KWT1 171201Z 02003KT 04/03 A3003 RMK A01 T00350027  RH  094%=      5-min Rain = 0
KWT1 171202Z 02003KT 04/03 A3003 RMK A01 T00350027  RH  094%=      5-min Rain = 0
KWT1 171203Z 03003KT 04/03 A3003 RMK A01 T00350027  RH  094%=      5-min Rain = 0
KWT1 171204Z 03002KT 04/03 A3003 RMK A01 T00350027  RH  094%=      5-min Rain = 0
KWT1 171205Z 03002KT 04/03 A3003 RMK A01 T00350027  RH  095%=      5-min Rain = 0
KWT1 171206Z 04002KT 04/03 A3003 RMK A01 T00350026  RH  094%=      5-min Rain = 0
KWT1 171207Z 04003KT 03/03 A3003 RMK A01 T00340025  RH  094%=      5-min Rain = 0
KWT1 171208Z 03003KT 03/03 A3003 RMK A01 T00340025  RH  094%=      5-min Rain = 0
KWT1 171209Z 02003KT 03/03 A3003 RMK A01 T00340026  RH  094%=      5-min Rain = 0
KWT1 171210Z 02004KT 04/03 A3003 RMK A01 T00350027  RH  095%=      5-min Rain = 0
KWT1 171211Z 01004KT 04/03 A3003 RMK A01 T00350027  RH  095%=      5-min Rain = 0
KWT1 171212Z 01004KT 03/03 A3004 RMK A01 T00330025  RH  094%=      5-min Rain = 0
KWT1 171213Z 01004KT 03/02 A3004 RMK A01 T00320023  RH  094%=      5-min Rain = 0
KWT1 171214Z 01004KT 03/02 A3004 RMK A01 T00310023  RH  094%=      5-min Rain = 0
KWT1 171215Z 01004KT 03/02 A3004 RMK A01 T00310024  RH  095%=      5-min Rain = 0
KWT1 171216Z 01004KT 03/02 A3004 RMK A01 T00310024  RH  095%=      5-min Rain = 0
KWT1 171217Z 01003KT 03/03 A3004 RMK A01 T00320025  RH  095%=      5-min Rain = 0
KWT1 171218Z 01004KT 03/03 A3004 RMK A01 T00320025  RH  095%=      5-min Rain = 0
KWT1 171219Z 01005KT 03/03 A3004 RMK A01 T00320025  RH  095%=      5-min Rain = 0
KWT1 171220Z 03005KT 03/03 A3004 RMK A01 T00320025  RH  096%=      5-min Rain = 0
KWT1 171221Z 04004KT 03/03 A3004 RMK A01 T00320025  RH  096%=      5-min Rain = 0
KWT1 171222Z 04003KT 03/03 A3004 RMK A01 T00320026  RH  096%=      5-min Rain = 0
KWT1 171223Z 02003KT 03/03 A3004 RMK A01 T00330027  RH  096%=      5-min Rain = 0
KWT1 171224Z 02003KT 03/03 A3004 RMK A01 T00330027  RH  096%=      5-min Rain = 0
KWT1 171225Z 02005KT 03/03 A3004 RMK A01 T00330027  RH  096%=      5-min Rain = 0
KWT1 171226Z 02005KT 03/03 A3004 RMK A01 T00330026  RH  095%=      5-min Rain = 0
KWT1 171227Z 02006KT 03/02 A3004 RMK A01 T00320023  RH  094%=      5-min Rain = 0
KWT1 171228Z 02006KT 03/02 A3004 RMK A01 T00270018  RH  093%=      5-min Rain = 0
KWT1 171229Z 01006KT 02/01 A3005 RMK A01 T00240014  RH  093%=      5-min Rain = 0
KWT1 171230Z 01007KT 02/01 A3005 RMK A01 T00230014  RH  094%=      5-min Rain = 0
KWT1 171231Z 01006KT 02/02 A3005 RMK A01 T00230015  RH  094%=      5-min Rain = 0
KWT1 171232Z 01006KT 02/02 A3005 RMK A01 T00230016  RH  095%=      5-min Rain = 0
KWT1 171233Z 01006KT 02/02 A3005 RMK A01 T00230016  RH  096%=      5-min Rain = 0
KWT1 171234Z 00006KT 02/02 A3005 RMK A01 T00240018  RH  096%=      5-min Rain = 0
KWT1 171235Z 00007KT 02/02 A3005 RMK A01 T00240019  RH  096%=      5-min Rain = 0
KWT1 171236Z 00006KT 03/02 A3005 RMK A01 T00250020  RH  097%=      5-min Rain = 0
KWT1 171237Z 36005KT 03/02 A3005 RMK A01 T00260021  RH  097%=      5-min Rain = 0
KWT1 171238Z 00005KT 03/02 A3005 RMK A01 T00270022  RH  097%=      5-min Rain = 0
KWT1 171239Z 00005KT 03/02 A3005 RMK A01 T00270022  RH  097%=      5-min Rain = 0
KWT1 171240Z 00006KT 03/02 A3005 RMK A01 T00270021  RH  096%=      5-min Rain = 0
KWT1 171241Z 00006KT 03/02 A3005 RMK A01 T00260021  RH  096%=      5-min Rain = 0
KWT1 171242Z 01006KT 03/02 A3005 RMK A01 T00260021  RH  096%=      5-min Rain = 0
KWT1 171243Z 01006KT 03/02 A3005 RMK A01 T00260022  RH  097%=      5-min Rain = 0
KWT1 171244Z 02006KT 03/02 A3005 RMK A01 T00270023  RH  097%=      5-min Rain = 0
KWT1 171245Z 02006KT 03/02 A3005 RMK A01 T00280024  RH  097%=      5-min Rain = 0
KWT1 171246Z 02006KT 03/03 A3005 RMK A01 T00300026  RH  097%=      5-min Rain = 0
KWT1 171247Z 01006KT 03/03 A3005 RMK A01 T00310028  RH  097%=      5-min Rain = 0
KWT1 171248Z 02006KT 03/03 A3005 RMK A01 T00330029  RH  097%=      5-min Rain = 0
KWT1 171249Z 02005KT 03/03 A3005 RMK A01 T00340030  RH  097%=      5-min Rain = 0
KWT1 171250Z 02006KT 04/03 A3005 RMK A01 T00350030  RH  097%=      5-min Rain = 0
KWT1 171251Z 02006KT 04/03 A3004 RMK A01 T00350030  RH  097%=      5-min Rain = 0
KWT1 171252Z 03005KT 04/03 A3004 RMK A01 T00360031  RH  096%=      5-min Rain = 0
KWT1 171253Z 03005KT 04/03 A3004 RMK A01 T00370031  RH  096%=      5-min Rain = 0
KWT1 171254Z 04005KT 04/03 A3004 RMK A01 T00370031  RH  096%=      5-min Rain = 0
KWT1 171255Z 04005KT 04/03 A3004 RMK A01 T00370030  RH  095%=      5-min Rain = 0
KWT1 171256Z 03005KT 04/03 A3005 RMK A01 T00370030  RH  095%=      5-min Rain = 0
KWT1 171257Z 03006KT 04/03 A3005 RMK A01 T00370030  RH  095%=      5-min Rain = 0
KWT1 171258Z 02006KT 04/03 A3005 RMK A01 T00370030  RH  095%=      5-min Rain = 0
KWT1 171259Z 02006KT 04/03 A3005 RMK A01 T00380029  RH  094%=      5-min Rain = 0
KWT1 171300Z 02006KT 04/03 A3005 RMK A01 T00370029  RH  094%=      5-min Rain = 0
KWT1 171301Z 02005KT 04/03 A3005 RMK A01 T00360027  RH  094%=      5-min Rain = 0
KWT1 171302Z 02006KT 04/03 A3005 RMK A01 T00360027  RH  094%=      5-min Rain = 0
KWT1 171303Z 01006KT 04/03 A3005 RMK A01 T00360028  RH  095%=      5-min Rain = 0
KWT1 171304Z 01006KT 04/03 A3005 RMK A01 T00360029  RH  095%=      5-min Rain = 0
KWT1 171305Z 01007KT 04/03 A3006 RMK A01 T00370030  RH  095%=      5-min Rain = 0
KWT1 171306Z 01007KT 04/03 A3006 RMK A01 T00380031  RH  095%=      5-min Rain = 0
KWT1 171307Z 01007KT 04/03 A3006 RMK A01 T00380031  RH  095%=      5-min Rain = 0
KWT1 171308Z 01007KT 04/03 A3006 RMK A01 T00380031  RH  095%=      5-min Rain = 0
KWT1 171309Z 01007KT 04/03 A3006 RMK A01 T00390031  RH  095%=      5-min Rain = 0
KWT1 171310Z 02007KT 04/03 A3006 RMK A01 T00390032  RH  095%=      5-min Rain = 0
KWT1 171311Z 02007KT 04/03 A3006 RMK A01 T00400033  RH  095%=      5-min Rain = 0
KWT1 171312Z 01008KT 04/03 A3006 RMK A01 T00410034  RH  095%=      5-min Rain = 0
KWT1 171313Z 02009KT 04/03 A3006 RMK A01 T00410033  RH  094%=      5-min Rain = 0
KWT1 171314Z 02007KT 04/03 A3006 RMK A01 T00420034  RH  094%=      5-min Rain = 0
KWT1 171315Z 02007KT 04/03 A3006 RMK A01 T00430034  RH  094%=      5-min Rain = 0
KWT1 171316Z 02007KT 04/03 A3006 RMK A01 T00430033  RH  093%=      5-min Rain = 0
KWT1 171317Z 02007KT 04/03 A3007 RMK A01 T00430033  RH  093%=      5-min Rain = 0
KWT1 171318Z 02007KT 04/03 A3006 RMK A01 T00430033  RH  093%=      5-min Rain = 0
KWT1 171319Z 03007KT 04/03 A3006 RMK A01 T00440034  RH  093%=      5-min Rain = 0
KWT1 171320Z 03007KT 05/03 A3006 RMK A01 T00450034  RH  093%=      5-min Rain = 0
KWT1 171321Z 02007KT 05/03 A3006 RMK A01 T00460034  RH  092%=      5-min Rain = 0
KWT1 171322Z 03007KT 05/03 A3006 RMK A01 T00460034  RH  092%=      5-min Rain = 0
KWT1 171323Z 02007KT 05/03 A3007 RMK A01 T00470034  RH  092%=      5-min Rain = 0
KWT1 171324Z 03007KT 05/03 A3007 RMK A01 T00470034  RH  091%=      5-min Rain = 0
KWT1 171325Z 03007KT 05/03 A3007 RMK A01 T00470033  RH  091%=      5-min Rain = 0
KWT1 171326Z 03008KT 05/03 A3007 RMK A01 T00470033  RH  091%=      5-min Rain = 0
KWT1 171327Z 03007KT 05/03 A3007 RMK A01 T00480033  RH  091%=      5-min Rain = 0
KWT1 171328Z 03008KT 05/03 A3007 RMK A01 T00480034  RH  090%=      5-min Rain = 0
KWT1 171329Z 03008KT 05/03 A3007 RMK A01 T00490034  RH  090%=      5-min Rain = 0
KWT1 171330Z 03009KT 05/03 A3007 RMK A01 T00490033  RH  089%=      5-min Rain = 0
KWT1 171331Z 03010KT 05/03 A3007 RMK A01 T00500034  RH  089%=      5-min Rain = 0
KWT1 171332Z 03009KT 05/03 A3007 RMK A01 T00510034  RH  088%=      5-min Rain = 0
KWT1 171333Z 02010KT 05/03 A3007 RMK A01 T00530034  RH  088%=      5-min Rain = 0
KWT1 171334Z 02009KT 05/03 A3007 RMK A01 T00530033  RH  087%=      5-min Rain = 0
KWT1 171335Z 03010KT 05/03 A3007 RMK A01 T00540033  RH  087%=      5-min Rain = 0
KWT1 171336Z 02011KT 05/03 A3007 RMK A01 T00540034  RH  087%=      5-min Rain = 0
KWT1 171337Z 02010KT 06/03 A3008 RMK A01 T00550034  RH  086%=      5-min Rain = 0
KWT1 171338Z 03010KT 06/03 A3008 RMK A01 T00550034  RH  086%=      5-min Rain = 0
KWT1 171339Z 02010KT 06/03 A3008 RMK A01 T00560033  RH  085%=      5-min Rain = 0
KWT1 171340Z 02010KT 06/03 A3008 RMK A01 T00570033  RH  085%=      5-min Rain = 0
KWT1 171341Z 02010KT 06/03 A3008 RMK A01 T00570033  RH  085%=      5-min Rain = 0
KWT1 171342Z 02011KT 06/03 A3008 RMK A01 T00580033  RH  084%=      5-min Rain = 0
KWT1 171343Z 02010KT 06/03 A3008 RMK A01 T00580033  RH  084%=      5-min Rain = 0
KWT1 171344Z 02012KT 06/03 A3008 RMK A01 T00590033  RH  083%=      5-min Rain = 0
KWT1 171345Z 02011KT 06/03 A3008 RMK A01 T00600032  RH  082%=      5-min Rain = 0
KWT1 171346Z 02010KT 06/03 A3008 RMK A01 T00610033  RH  082%=      5-min Rain = 0
KWT1 171347Z 02011KT 06/03 A3008 RMK A01 T00610032  RH  082%=      5-min Rain = 0
KWT1 171348Z 02011KT 06/03 A3008 RMK A01 T00610032  RH  082%=      5-min Rain = 0
KWT1 171349Z 02012KT 06/03 A3008 RMK A01 T00620032  RH  081%=      5-min Rain = 0
KWT1 171350Z 01011KT 06/03 A3008 RMK A01 T00630032  RH  081%=      5-min Rain = 0
KWT1 171351Z 02010KT 06/03 A3008 RMK A01 T00630033  RH  081%=      5-min Rain = 0
KWT1 171352Z 02012KT 06/03 A3008 RMK A01 T00630032  RH  081%=      5-min Rain = 0
KWT1 171353Z 02011KT 06/03 A3008 RMK A01 T00640032  RH  080%=      5-min Rain = 0
KWT1 171354Z 02009KT 06/03 A3008 RMK A01 T00640032  RH  080%=      5-min Rain = 0
KWT1 171355Z 02009KT 06/03 A3008 RMK A01 T00640032  RH  080%=      5-min Rain = 0
KWT1 171356Z 02010KT 06/03 A3008 RMK A01 T00640032  RH  080%=      5-min Rain = 0
KWT1 171357Z 02011KT 07/03 A3008 RMK A01 T00650032  RH  079%=      5-min Rain = 0
KWT1 171358Z 02010KT 07/03 A3008 RMK A01 T00660032  RH  079%=      5-min Rain = 0
KWT1 171359Z 02012KT 07/03 A3008 RMK A01 T00660031  RH  079%=      5-min Rain = 0
KWT1 171400Z 02012KT 07/03 A3008 RMK A01 T00670031  RH  078%=      5-min Rain = 0
KWT1 171401Z 02011KT 07/03 A3008 RMK A01 T00670031  RH  077%=      5-min Rain = 0
KWT1 171402Z 02012KT 07/03 A3008 RMK A01 T00670031  RH  078%=      5-min Rain = 0
KWT1 171403Z 02012KT 07/03 A3008 RMK A01 T00680031  RH  077%=      5-min Rain = 0
KWT1 171404Z 02012KT 07/03 A3008 RMK A01 T00690031  RH  077%=      5-min Rain = 0
KWT1 171405Z 01009G14KT 07/03 A3008 RMK A01 T00690030  RH  077%=      5-min Rain = 0
KWT1 171406Z 01013KT 07/03 A3009 RMK A01 T00690030  RH  076%=      5-min Rain = 0
KWT1 171407Z 02012KT 07/03 A3009 RMK A01 T00700030  RH  076%=      5-min Rain = 0
KWT1 171408Z 01013KT 07/03 A3009 RMK A01 T00700030  RH  076%=      5-min Rain = 0
KWT1 171409Z 01013KT 07/03 A3009 RMK A01 T00700029  RH  075%=      5-min Rain = 0
KWT1 171410Z 01010KT 07/03 A3009 RMK A01 T00710029  RH  075%=      5-min Rain = 0
KWT1 171411Z 01011KT 07/03 A3009 RMK A01 T00710030  RH  075%=      5-min Rain = 0
KWT1 171412Z 02011KT 07/03 A3009 RMK A01 T00720029  RH  075%=      5-min Rain = 0
KWT1 171413Z 01014KT 07/03 A3009 RMK A01 T00720029  RH  074%=      5-min Rain = 0
KWT1 171414Z 02012KT 07/03 A3009 RMK A01 T00730029  RH  074%=      5-min Rain = 0
KWT1 171415Z 01014KT 07/03 A3009 RMK A01 T00730029  RH  073%=      5-min Rain = 0
KWT1 171416Z 01014G19KT 07/03 A3009 RMK A01 T00740028  RH  073%=      5-min Rain = 0
KWT1 171417Z 01014KT 08/03 A3009 RMK A01 T00750027  RH  072%=      5-min Rain = 0
KWT1 171418Z 01014KT 08/03 A3009 RMK A01 T00750028  RH  072%=      5-min Rain = 0
KWT1 171419Z 01012KT 08/03 A3009 RMK A01 T00760027  RH  072%=      5-min Rain = 0
KWT1 171420Z 02012KT 08/03 A3009 RMK A01 T00760028  RH  072%=      5-min Rain = 0
KWT1 171421Z 01012KT 08/03 A3009 RMK A01 T00770028  RH  071%=      5-min Rain = 0
KWT1 171422Z 01011KT 08/03 A3009 RMK A01 T00780028  RH  071%=      5-min Rain = 0
KWT1 171423Z 02015KT 08/03 A3009 RMK A01 T00780028  RH  071%=      5-min Rain = 0
KWT1 171424Z 01012KT 08/03 A3009 RMK A01 T00790027  RH  070%=      5-min Rain = 0
KWT1 171425Z 01013KT 08/03 A3009 RMK A01 T00790028  RH  070%=      5-min Rain = 0
KWT1 171426Z 01012G18KT 08/03 A3009 RMK A01 T00800027  RH  069%=      5-min Rain = 0
KWT1 171427Z 01012G18KT 08/03 A301 RMK A01 T00810028  RH  069%=      5-min Rain = 0
KWT1 171428Z 01016KT 08/03 A301 RMK A01 T00820026  RH  068%=      5-min Rain = 0
KWT1 171429Z 01015KT 08/03 A301 RMK A01 T00830026  RH  068%=      5-min Rain = 0
KWT1 171430Z 01015KT 08/03 A301 RMK A01 T00840026  RH  067%=      5-min Rain = 0
KWT1 171431Z 01014KT 08/03 A301 RMK A01 T00840026  RH  067%=      5-min Rain = 0
KWT1 171432Z 01012G17KT 09/03 A301 RMK A01 T00850026  RH  066%=      5-min Rain = 0
KWT1 171433Z 01015KT 09/03 A301 RMK A01 T00860025  RH  066%=      5-min Rain = 0
KWT1 171434Z 01017KT 09/03 A301 RMK A01 T00870025  RH  065%=      5-min Rain = 0
KWT1 171435Z 00015KT 09/02 A301 RMK A01 T00870024  RH  064%=      5-min Rain = 0
KWT1 171436Z 01014G19KT 09/03 A301 RMK A01 T00880025  RH  064%=      5-min Rain = 0
KWT1 171437Z 01012KT 09/03 A301 RMK A01 T00890025  RH  064%=      5-min Rain = 0
KWT1 171438Z 01013KT 09/03 A301 RMK A01 T00900026  RH  064%=      5-min Rain = 0
KWT1 171439Z 01016KT 09/03 A301 RMK A01 T00910025  RH  063%=      5-min Rain = 0
KWT1 171440Z 01014KT 09/02 A301 RMK A01 T00910024  RH  063%=      5-min Rain = 0
KWT1 171441Z 01013G19KT 09/02 A301 RMK A01 T00920024  RH  062%=      5-min Rain = 0
KWT1 171442Z 01016KT 09/02 A301 RMK A01 T00930024  RH  062%=      5-min Rain = 0
KWT1 171443Z 01017G23KT 09/02 A301 RMK A01 T00940022  RH  061%=      5-min Rain = 0
KWT1 171444Z 36018KT 10/02 A301 RMK A01 T00950022  RH  061%=      5-min Rain = 0
KWT1 171445Z 01015KT 10/02 A301 RMK A01 T00950021  RH  060%=      5-min Rain = 0
KWT1 171446Z 01018G23KT 10/02 A301 RMK A01 T00970022  RH  060%=      5-min Rain = 0
KWT1 171447Z 01017G23KT 10/02 A301 RMK A01 T00970020  RH  059%=      5-min Rain = 0
KWT1 171448Z 01015KT 10/02 A301 RMK A01 T00980021  RH  059%=      5-min Rain = 0
KWT1 171449Z 01017KT 10/02 A301 RMK A01 T00980021  RH  059%=      5-min Rain = 0
KWT1 171450Z 01017G22KT 10/02 A301 RMK A01 T00990021  RH  058%=      5-min Rain = 0
KWT1 171451Z 01017KT 10/02 A301 RMK A01 T00990021  RH  058%=      5-min Rain = 0
KWT1 171452Z 01013G18KT 10/02 A301 RMK A01 T01000020  RH  058%=      5-min Rain = 0
KWT1 171453Z 02019G25KT 10/02 A301 RMK A01 T01000022  RH  058%=      5-min Rain = 0
KWT1 171454Z 01022G29KT 10/02 A301 RMK A01 T01000020  RH  057%=      5-min Rain = 0
KWT1 171455Z 00019KT 10/02 A301 RMK A01 T01000019  RH  057%=      5-min Rain = 0
KWT1 171456Z 02018G25KT 10/02 A301 RMK A01 T01000020  RH  057%=      5-min Rain = 0
KWT1 171457Z 01022G27KT 10/02 A301 RMK A01 T01010020  RH  057%=      5-min Rain = 0
KWT1 171458Z 00021G27KT 10/02 A301 RMK A01 T01010019  RH  057%=      5-min Rain = 0
KWT1 171459Z 02022KT 10/02 A301 RMK A01 T01020019  RH  056%=      5-min Rain = 0
KWT1 171500Z 01018G23KT 10/02 A301 RMK A01 T01010019  RH  056%=      5-min Rain = 0
KWT1 171501Z 01018KT 10/02 A301 RMK A01 T01020020  RH  057%=      5-min Rain = 0
KWT1 171502Z 01020G31KT 10/02 A301 RMK A01 T01030020  RH  057%=      5-min Rain = 0
KWT1 171503Z 01021KT 10/02 A301 RMK A01 T01030019  RH  056%=      5-min Rain = 0
KWT1 171504Z 01020G30KT 10/02 A301 RMK A01 T01030019  RH  056%=      5-min Rain = 0
KWT1 171505Z 01024G29KT 10/02 A301 RMK A01 T01040019  RH  056%=      5-min Rain = 0
KWT1 171506Z 01020G26KT 10/02 A301 RMK A01 T01040019  RH  056%=      5-min Rain = 0
KWT1 171507Z 01024G30KT 10/02 A301 RMK A01 T01040019  RH  056%=      5-min Rain = 0
KWT1 171508Z 01019G27KT 10/02 A301 RMK A01 T01040019  RH  055%=      5-min Rain = 0
KWT1 171509Z 02022G27KT 10/02 A301 RMK A01 T01040019  RH  055%=      5-min Rain = 0
KWT1 171510Z 01020G26KT 11/02 A301 RMK A01 T01050020  RH  055%=      5-min Rain = 0
KWT1 171511Z 02024KT 11/02 A301 RMK A01 T01050019  RH  055%=      5-min Rain = 0
KWT1 171512Z 01020G25KT 11/02 A301 RMK A01 T01050019  RH  055%=      5-min Rain = 0
KWT1 171513Z 01020KT 11/02 A301 RMK A01 T01050020  RH  055%=      5-min Rain = 0
KWT1 171514Z 02021KT 11/02 A301 RMK A01 T01060020  RH  055%=      5-min Rain = 0
KWT1 171515Z 01024G29KT 11/02 A301 RMK A01 T01060019  RH  055%=      5-min Rain = 0
KWT1 171516Z 02026KT 11/02 A301 RMK A01 T01060019  RH  055%=      5-min Rain = 0
KWT1 171517Z 01023G29KT 11/02 A3011 RMK A01 T01060019  RH  055%=      5-min Rain = 0
KWT1 171518Z 01021KT 11/02 A3011 RMK A01 T01060019  RH  055%=      5-min Rain = 0
KWT1 171519Z 01020G26KT 11/02 A3011 RMK A01 T01070020  RH  055%=      5-min Rain = 0
KWT1 171520Z 02021G26KT 11/02 A301 RMK A01 T01070020  RH  055%=      5-min Rain = 0
KWT1 171521Z 02019G27KT 11/02 A3011 RMK A01 T01080021  RH  055%=      5-min Rain = 0
KWT1 171522Z 01023KT 11/02 A3011 RMK A01 T01090020  RH  054%=      5-min Rain = 0
KWT1 171523Z 01023KT 11/02 A301 RMK A01 T01090019  RH  054%=      5-min Rain = 0
KWT1 171524Z 01023G28KT 11/02 A3011 RMK A01 T01090019  RH  054%=      5-min Rain = 0
KWT1 171525Z 01019G26KT 11/02 A3011 RMK A01 T01090020  RH  054%=      5-min Rain = 0
KWT1 171526Z 01016KT 11/02 A3011 RMK A01 T01100021  RH  054%=      5-min Rain = 0
KWT1 171527Z 02019G25KT 11/02 A3011 RMK A01 T01110021  RH  054%=      5-min Rain = 0
KWT1 171528Z 01018KT 11/02 A3011 RMK A01 T01120021  RH  054%=      5-min Rain = 0
KWT1 171529Z 01019G26KT 11/02 A3011 RMK A01 T01120021  RH  054%=      5-min Rain = 0
KWT1 171530Z 01020KT 11/02 A3011 RMK A01 T01130021  RH  053%=      5-min Rain = 0
KWT1 171531Z 01020G30KT 11/02 A3011 RMK A01 T01130021  RH  053%=      5-min Rain = 0
KWT1 171532Z 01023KT 11/02 A3011 RMK A01 T01130021  RH  053%=      5-min Rain = 0
KWT1 171533Z 02018G23KT 11/02 A3011 RMK A01 T01130020  RH  053%=      5-min Rain = 0
KWT1 171534Z 02016G24KT 11/02 A3011 RMK A01 T01140021  RH  053%=      5-min Rain = 0
KWT1 171535Z 02020G25KT 12/02 A3011 RMK A01 T01150023  RH  053%=      5-min Rain = 0
KWT1 171536Z 02019G24KT 12/02 A3011 RMK A01 T01160021  RH  052%=      5-min Rain = 0
KWT1 171537Z 02017G26KT 12/02 A3011 RMK A01 T01160022  RH  052%=      5-min Rain = 0
KWT1 171538Z 03022G27KT 12/02 A3011 RMK A01 T01170022  RH  052%=      5-min Rain = 0
KWT1 171539Z 02020KT 12/02 A3011 RMK A01 T01170021  RH  052%=      5-min Rain = 0
KWT1 171540Z 02018KT 12/02 A3011 RMK A01 T01170021  RH  052%=      5-min Rain = 0
KWT1 171541Z 01020G25KT 12/02 A3011 RMK A01 T01170022  RH  052%=      5-min Rain = 0
KWT1 171542Z 02017KT 12/02 A3011 RMK A01 T01180021  RH  052%=      5-min Rain = 0
KWT1 171543Z 03018G23KT 12/02 A3011 RMK A01 T01180022  RH  052%=      5-min Rain = 0
KWT1 171544Z 03023G29KT 12/02 A3011 RMK A01 T01190021  RH  051%=      5-min Rain = 0
KWT1 171545Z 02024KT 12/02 A3011 RMK A01 T01180020  RH  051%=      5-min Rain = 0
KWT1 171546Z 03021G27KT 12/02 A3011 RMK A01 T01180021  RH  051%=      5-min Rain = 0
KWT1 171547Z 02014KT 12/02 A3011 RMK A01 T01180022  RH  052%=      5-min Rain = 0
KWT1 171548Z 03019G27KT 12/02 A3011 RMK A01 T01210024  RH  052%=      5-min Rain = 0
KWT1 171549Z 02018G24KT 12/02 A3011 RMK A01 T01210022  RH  051%=      5-min Rain = 0
KWT1 171550Z 01016G28KT 12/02 A3011 RMK A01 T01210023  RH  051%=      5-min Rain = 0
KWT1 171551Z 02024KT 12/02 A3011 RMK A01 T01230023  RH  050%=      5-min Rain = 0
KWT1 171552Z 01021KT 12/02 A3011 RMK A01 T01210021  RH  050%=      5-min Rain = 0
KWT1 171553Z 02019G25KT 12/02 A3011 RMK A01 T01200021  RH  051%=      5-min Rain = 0
KWT1 171554Z 02024KT 12/02 A3011 RMK A01 T01210021  RH  051%=      5-min Rain = 0
KWT1 171555Z 01019G25KT 12/02 A3011 RMK A01 T01200021  RH  051%=      5-min Rain = 0
KWT1 171556Z 01022KT 12/02 A3011 RMK A01 T01210022  RH  051%=      5-min Rain = 0
KWT1 171557Z 01022G27KT 12/02 A3012 RMK A01 T01210022  RH  051%=      5-min Rain = 0
KWT1 171558Z 01020G25KT 12/02 A3012 RMK A01 T01210022  RH  051%=      5-min Rain = 0
KWT1 171559Z 01022G27KT 12/02 A3012 RMK A01 T01210022  RH  051%=      5-min Rain = 0
KWT1 171600Z 01021G26KT 12/02 A3012 RMK A01 T01210021  RH  050%=      5-min Rain = 0
KWT1 171601Z 01020G29KT 12/02 A3012 RMK A01 T01220022  RH  051%=      5-min Rain = 0
KWT1 171602Z 01020G27KT 12/02 A3012 RMK A01 T01230023  RH  050%=      5-min Rain = 0
KWT1 171603Z 01020G28KT 12/02 A3012 RMK A01 T01240023  RH  050%=      5-min Rain = 0
KWT1 171604Z 01023G28KT 13/02 A3011 RMK A01 T01250022  RH  050%=      5-min Rain = 0
KWT1 171605Z 01019G24KT 12/02 A3012 RMK A01 T01240022  RH  050%=      5-min Rain = 0
KWT1 171606Z 02020G26KT 13/02 A3012 RMK A01 T01250023  RH  050%=      5-min Rain = 0
KWT1 171607Z 02018KT 13/02 A3012 RMK A01 T01260023  RH  050%=      5-min Rain = 0
KWT1 171608Z 01017KT 13/02 A3011 RMK A01 T01260023  RH  050%=      5-min Rain = 0
KWT1 171609Z 01017G23KT 13/02 A3011 RMK A01 T01270024  RH  049%=      5-min Rain = 0
KWT1 171610Z 01023KT 13/02 A3011 RMK A01 T01290023  RH  049%=      5-min Rain = 0
KWT1 171611Z 01021G27KT 13/02 A3011 RMK A01 T01270022  RH  049%=      5-min Rain = 0
KWT1 171612Z 01020G29KT 13/02 A3011 RMK A01 T01260023  RH  049%=      5-min Rain = 0
KWT1 171613Z 01024KT 13/02 A3012 RMK A01 T01260022  RH  049%=      5-min Rain = 0
KWT1 171614Z 02022G27KT 13/02 A3012 RMK A01 T01250022  RH  049%=      5-min Rain = 0
KWT1 171615Z 01026G33KT 13/02 A3012 RMK A01 T01250022  RH  049%=      5-min Rain = 0
KWT1 171616Z 01023G29KT 12/02 A3012 RMK A01 T01240021  RH  050%=      5-min Rain = 0
KWT1 171617Z 02021G26KT 12/02 A3012 RMK A01 T01240021  RH  050%=      5-min Rain = 0
KWT1 171618Z 02022G27KT 13/02 A3012 RMK A01 T01250023  RH  050%=      5-min Rain = 0
KWT1 171619Z 02024G31KT 13/02 A3012 RMK A01 T01260022  RH  049%=      5-min Rain = 0
KWT1 171620Z 02023G29KT 13/02 A3012 RMK A01 T01260022  RH  049%=      5-min Rain = 0
KWT1 171621Z 01023G29KT 13/02 A3012 RMK A01 T01260022  RH  049%=      5-min Rain = 0
KWT1 171622Z 01023G29KT 13/02 A3012 RMK A01 T01260022  RH  049%=      5-min Rain = 0
KWT1 171623Z 02021KT 13/02 A3012 RMK A01 T01260022  RH  049%=      5-min Rain = 0
KWT1 171624Z 03021KT 13/02 A3012 RMK A01 T01270023  RH  049%=      5-min Rain = 0
KWT1 171625Z 02021G26KT 13/02 A3012 RMK A01 T01270022  RH  049%=      5-min Rain = 0
KWT1 171626Z 03021G27KT 13/02 A3012 RMK A01 T01280024  RH  049%=      5-min Rain = 0
KWT1 171627Z 02018G24KT 13/02 A3012 RMK A01 T01290023  RH  049%=      5-min Rain = 0
KWT1 171628Z 02020G26KT 13/02 A3012 RMK A01 T01300024  RH  048%=      5-min Rain = 0
KWT1 171629Z 01019G24KT 13/02 A3012 RMK A01 T01310024  RH  048%=      5-min Rain = 0
KWT1 171630Z 02021G27KT 13/02 A3012 RMK A01 T01320023  RH  047%=      5-min Rain = 0
KWT1 171631Z 02018G24KT 13/02 A3012 RMK A01 T01310022  RH  048%=      5-min Rain = 0
KWT1 171632Z 02023G28KT 13/02 A3012 RMK A01 T01320022  RH  047%=      5-min Rain = 0
KWT1 171633Z 02024KT 13/02 A3012 RMK A01 T01310020  RH  047%=      5-min Rain = 0
KWT1 171634Z 02025KT 13/02 A3012 RMK A01 T01300021  RH  048%=      5-min Rain = 0
KWT1 171635Z 02023KT 13/02 A3012 RMK A01 T01300022  RH  048%=      5-min Rain = 0
KWT1 171636Z 01018KT 13/02 A3012 RMK A01 T01310022  RH  048%=      5-min Rain = 0
KWT1 171637Z 02020G25KT 13/02 A3012 RMK A01 T01320023  RH  048%=      5-min Rain = 0
KWT1 171638Z 03020G26KT 13/02 A3012 RMK A01 T01320022  RH  047%=      5-min Rain = 0
KWT1 171639Z 02019KT 13/02 A3012 RMK A01 T01330023  RH  047%=      5-min Rain = 0
KWT1 171640Z 02018G23KT 13/02 A3012 RMK A01 T01340022  RH  047%=      5-min Rain = 0
KWT1 171641Z 02018G24KT 14/02 A3012 RMK A01 T01350023  RH  047%=      5-min Rain = 0
KWT1 171642Z 01017G22KT 14/02 A3012 RMK A01 T01350023  RH  046%=      5-min Rain = 0
KWT1 171643Z 01019G25KT 14/02 A3012 RMK A01 T01360024  RH  047%=      5-min Rain = 0
KWT1 171644Z 01016KT 14/02 A3012 RMK A01 T01380024  RH  046%=      5-min Rain = 0
KWT1 171645Z 02016KT 14/03 A3012 RMK A01 T01390025  RH  046%=      5-min Rain = 0
KWT1 171646Z 02017KT 14/03 A3012 RMK A01 T01400025  RH  046%=      5-min Rain = 0
KWT1 171647Z 02018G24KT 14/03 A3012 RMK A01 T01400025  RH  046%=      5-min Rain = 0
KWT1 171648Z 02019KT 14/02 A3012 RMK A01 T01400024  RH  045%=      5-min Rain = 0
KWT1 171649Z 02018G23KT 14/02 A3012 RMK A01 T01400024  RH  046%=      5-min Rain = 0
KWT1 171650Z 02016G23KT 14/02 A3012 RMK A01 T01400024  RH  045%=      5-min Rain = 0
KWT1 171651Z 01020KT 14/02 A3012 RMK A01 T01400024  RH  045%=      5-min Rain = 0
KWT1 171652Z 01017KT 14/02 A3012 RMK A01 T01390023  RH  045%=      5-min Rain = 0
KWT1 171653Z 01021G26KT 14/02 A3012 RMK A01 T01400024  RH  045%=      5-min Rain = 0
KWT1 171654Z 01019KT 14/02 A3012 RMK A01 T01390022  RH  045%=      5-min Rain = 0
KWT1 171655Z 00022KT 14/02 A3012 RMK A01 T01380022  RH  045%=      5-min Rain = 0
KWT1 171656Z 01023KT 14/02 A3012 RMK A01 T01380022  RH  045%=      5-min Rain = 0
KWT1 171657Z 36019KT 14/02 A3012 RMK A01 T01370022  RH  046%=      5-min Rain = 0
KWT1 171658Z 00015KT 14/02 A3012 RMK A01 T01380023  RH  046%=      5-min Rain = 0
KWT1 171659Z 01020KT 14/03 A3012 RMK A01 T01420026  RH  045%=      5-min Rain = 0
KWT1 171700Z 01022G27KT 14/02 A3012 RMK A01 T01420023  RH  045%=      5-min Rain = 0
KWT1 171701Z 01019KT 14/02 A3012 RMK A01 T01390022  RH  045%=      5-min Rain = 0
KWT1 171702Z 01021KT 14/02 A3012 RMK A01 T01380023  RH  045%=      5-min Rain = 0
KWT1 171703Z 01021KT 14/02 A3012 RMK A01 T01390024  RH  046%=      5-min Rain = 0
KWT1 171704Z 01022KT 14/02 A3012 RMK A01 T01400023  RH  045%=      5-min Rain = 0
KWT1 171705Z 01018G23KT 14/02 A3013 RMK A01 T01390022  RH  045%=      5-min Rain = 0
KWT1 171706Z 02018G23KT 14/03 A3013 RMK A01 T01400025  RH  046%=      5-min Rain = 0
KWT1 171707Z 02016KT 14/02 A3013 RMK A01 T01420024  RH  045%=      5-min Rain = 0
KWT1 171708Z 01019KT 14/02 A3013 RMK A01 T01420024  RH  045%=      5-min Rain = 0
KWT1 171709Z 01018G24KT 14/02 A3013 RMK A01 T01430024  RH  044%=      5-min Rain = 0
KWT1 171710Z 02019KT 14/02 A3013 RMK A01 T01430024  RH  044%=      5-min Rain = 0
KWT1 171711Z 01021KT 14/02 A3012 RMK A01 T01440023  RH  044%=      5-min Rain = 0
KWT1 171712Z 01019G24KT 14/02 A3012 RMK A01 T01420023  RH  045%=      5-min Rain = 0
KWT1 171713Z 01020G26KT 14/02 A3012 RMK A01 T01410023  RH  045%=      5-min Rain = 0
KWT1 171714Z 02019KT 14/02 A3013 RMK A01 T01400023  RH  045%=      5-min Rain = 0
KWT1 171715Z 01015KT 14/02 A3013 RMK A01 T01410023  RH  045%=      5-min Rain = 0
KWT1 171716Z 01019KT 14/03 A3013 RMK A01 T01430025  RH  045%=      5-min Rain = 0
KWT1 171717Z 02015G20KT 14/02 A3013 RMK A01 T01430024  RH  044%=      5-min Rain = 0
KWT1 171718Z 02018KT 14/03 A3013 RMK A01 T01430025  RH  045%=      5-min Rain = 0
KWT1 171719Z 04018G23KT 15/02 A3013 RMK A01 T01450024  RH  044%=      5-min Rain = 0
KWT1 171720Z 03017KT 15/03 A3013 RMK A01 T01450025  RH  044%=      5-min Rain = 0
KWT1 171721Z 03016G21KT 15/02 A3013 RMK A01 T01450024  RH  044%=      5-min Rain = 0
KWT1 171722Z 02013KT 15/02 A3013 RMK A01 T01460024  RH  044%=      5-min Rain = 0
KWT1 171723Z 03016KT 15/03 A3013 RMK A01 T01470025  RH  044%=      5-min Rain = 0
KWT1 171724Z 02016G24KT 15/02 A3013 RMK A01 T01470024  RH  044%=      5-min Rain = 0
KWT1 171725Z 01014G19KT 15/03 A3013 RMK A01 T01470025  RH  044%=      5-min Rain = 0
KWT1 171726Z 02017KT 15/02 A3013 RMK A01 T01470024  RH  043%=      5-min Rain = 0
KWT1 171727Z 02014G20KT 15/02 A3013 RMK A01 T01460023  RH  043%=      5-min Rain = 0
KWT1 171728Z 01016KT 15/02 A3013 RMK A01 T01450024  RH  044%=      5-min Rain = 0
KWT1 171729Z 02015KT 15/02 A3013 RMK A01 T01450024  RH  044%=      5-min Rain = 0
KWT1 171730Z 02015KT 15/02 A3013 RMK A01 T01460024  RH  044%=      5-min Rain = 0
KWT1 171731Z 03014KT 15/03 A3013 RMK A01 T01460025  RH  044%=      5-min Rain = 0
KWT1 171732Z 02015KT 15/03 A3013 RMK A01 T01480026  RH  044%=      5-min Rain = 0
KWT1 171733Z 01013G20KT 15/03 A3013 RMK A01 T01490026  RH  044%=      5-min Rain = 0
KWT1 171734Z 01016KT 15/02 A3013 RMK A01 T01500024  RH  043%=      5-min Rain = 0
KWT1 171735Z 01017G22KT 15/02 A3013 RMK A01 T01470024  RH  043%=      5-min Rain = 0
KWT1 171736Z 01019KT 15/02 A3013 RMK A01 T01470024  RH  044%=      5-min Rain = 0
KWT1 171737Z 01017G22KT 15/02 A3013 RMK A01 T01470024  RH  043%=      5-min Rain = 0
KWT1 171738Z 00017G22KT 15/02 A3013 RMK A01 T01470022  RH  043%=      5-min Rain = 0
KWT1 171739Z 01014G19KT 15/02 A3013 RMK A01 T01470024  RH  043%=      5-min Rain = 0
KWT1 171740Z 01014KT 15/03 A3013 RMK A01 T01490025  RH  043%=      5-min Rain = 0
KWT1 171741Z 03014KT 15/03 A3013 RMK A01 T01500025  RH  043%=      5-min Rain = 0
KWT1 171742Z 03016KT 15/03 A3013 RMK A01 T01500025  RH  043%=      5-min Rain = 0
KWT1 171743Z 02017KT 15/03 A3013 RMK A01 T01490025  RH  043%=      5-min Rain = 0
KWT1 171744Z 02013G19KT 15/03 A3013 RMK A01 T01500026  RH  043%=      5-min Rain = 0
KWT1 171745Z 03015KT 15/03 A3013 RMK A01 T01530027  RH  043%=      5-min Rain = 0
KWT1 171746Z 03017KT 15/03 A3013 RMK A01 T01540026  RH  042%=      5-min Rain = 0
KWT1 171747Z 03016G22KT 15/02 A3013 RMK A01 T01510024  RH  042%=      5-min Rain = 0
KWT1 171748Z 03017KT 15/03 A3013 RMK A01 T01500025  RH  043%=      5-min Rain = 0
KWT1 171749Z 02014KT 15/03 A3013 RMK A01 T01500025  RH  043%=      5-min Rain = 0
KWT1 171750Z 02016KT 15/03 A3013 RMK A01 T01510025  RH  043%=      5-min Rain = 0
KWT1 171751Z 02014KT 15/03 A3013 RMK A01 T01510025  RH  043%=      5-min Rain = 0
KWT1 171752Z 03013KT 15/03 A3013 RMK A01 T01540027  RH  043%=      5-min Rain = 0
KWT1 171753Z 03013KT 16/03 A3013 RMK A01 T01560026  RH  042%=      5-min Rain = 0
KWT1 171754Z 03014KT 16/03 A3013 RMK A01 T01550026  RH  042%=      5-min Rain = 0
KWT1 171755Z 01015KT 15/02 A3013 RMK A01 T01540024  RH  042%=      5-min Rain = 0
KWT1 171756Z 03014G19KT 15/02 A3013 RMK A01 T01530024  RH  042%=      5-min Rain = 0
KWT1 171757Z 03009KT 15/03 A3013 RMK A01 T01530026  RH  042%=      5-min Rain = 0
KWT1 171758Z 03011KT 16/03 A3013 RMK A01 T01570027  RH  042%=      5-min Rain = 0
KWT1 171759Z 03009G14KT 16/03 A3013 RMK A01 T01580027  RH  041%=      5-min Rain = 0
KWT1 171800Z 02015G20KT 16/03 A3013 RMK A01 T01610027  RH  041%=      5-min Rain = 0
KWT1 171801Z 01014KT 16/03 A3013 RMK A01 T01590025  RH  040%=      5-min Rain = 0
KWT1 171802Z 02014KT 16/03 A3013 RMK A01 T01580025  RH  041%=      5-min Rain = 0
KWT1 171803Z 01012KT 16/03 A3013 RMK A01 T01560025  RH  041%=      5-min Rain = 0
KWT1 171804Z 36010KT 16/02 A3013 RMK A01 T01550024  RH  041%=      5-min Rain = 0
KWT1 171805Z 35011KT 16/03 A3013 RMK A01 T01560026  RH  042%=      5-min Rain = 0
KWT1 171806Z 01011KT 16/03 A3013 RMK A01 T01570027  RH  041%=      5-min Rain = 0
KWT1 171807Z 01014KT 16/03 A3013 RMK A01 T01600027  RH  041%=      5-min Rain = 0
KWT1 171808Z 02014KT 16/02 A3013 RMK A01 T01580024  RH  041%=      5-min Rain = 0
KWT1 171809Z 02014KT 16/02 A3013 RMK A01 T01560024  RH  041%=      5-min Rain = 0
KWT1 171810Z 01012KT 16/03 A3013 RMK A01 T01570025  RH  041%=      5-min Rain = 0
KWT1 171811Z 01017KT 16/03 A3013 RMK A01 T01580025  RH  041%=      5-min Rain = 0
KWT1 171812Z 01014KT 16/02 A3013 RMK A01 T01570024  RH  041%=      5-min Rain = 0
KWT1 171813Z 01013KT 16/02 A3013 RMK A01 T01560024  RH  041%=      5-min Rain = 0
KWT1 171814Z 02017KT 16/02 A3013 RMK A01 T01560022  RH  041%=      5-min Rain = 0
KWT1 171815Z 02015KT 15/02 A3013 RMK A01 T01540023  RH  041%=      5-min Rain = 0
KWT1 171816Z 02012KT 15/02 A3013 RMK A01 T01530022  RH  041%=      5-min Rain = 0
KWT1 171817Z 01012KT 15/02 A3012 RMK A01 T01530024  RH  042%=      5-min Rain = 0
KWT1 171818Z 01013G18KT 16/03 A3012 RMK A01 T01560026  RH  041%=      5-min Rain = 0
KWT1 171819Z 02011KT 16/03 A3012 RMK A01 T01570025  RH  041%=      5-min Rain = 0
KWT1 171820Z 01014KT 16/03 A3012 RMK A01 T01560025  RH  041%=      5-min Rain = 0
KWT1 171821Z 01012KT 16/02 A3012 RMK A01 T01550024  RH  041%=      5-min Rain = 0
KWT1 171822Z 01011KT 16/03 A3012 RMK A01 T01560026  RH  041%=      5-min Rain = 0
KWT1 171823Z 01013KT 16/03 A3012 RMK A01 T01580025  RH  041%=      5-min Rain = 0
KWT1 171824Z 01014KT 16/03 A3012 RMK A01 T01580025  RH  041%=      5-min Rain = 0
KWT1 171825Z 02013KT 16/03 A3012 RMK A01 T01580025  RH  041%=      5-min Rain = 0
KWT1 171826Z 01011KT 16/03 A3012 RMK A01 T01590026  RH  041%=      5-min Rain = 0
KWT1 171827Z 02011KT 16/03 A3012 RMK A01 T01620027  RH  040%=      5-min Rain = 0
KWT1 171828Z 01012KT 16/03 A3012 RMK A01 T01630027  RH  040%=      5-min Rain = 0
KWT1 171829Z 00014KT 16/03 A3012 RMK A01 T01620025  RH  040%=      5-min Rain = 0
KWT1 171830Z 01013KT 16/02 A3012 RMK A01 T01580024  RH  040%=      5-min Rain = 0
KWT1 171831Z 01013KT 16/02 A3012 RMK A01 T01570024  RH  041%=      5-min Rain = 0
KWT1 171832Z 00013KT 16/03 A3011 RMK A01 T01570025  RH  041%=      5-min Rain = 0
KWT1 171833Z 00011KT 16/03 A3011 RMK A01 T01600025  RH  040%=      5-min Rain = 0
KWT1 171834Z 35012KT 16/02 A3011 RMK A01 T01600023  RH  040%=      5-min Rain = 0
KWT1 171835Z 36017KT 16/02 A3011 RMK A01 T01600023  RH  040%=      5-min Rain = 0
KWT1 171836Z 36015KT 16/02 A3011 RMK A01 T01590024  RH  040%=      5-min Rain = 0
KWT1 171837Z 36014KT 16/03 A3011 RMK A01 T01600025  RH  040%=      5-min Rain = 0
KWT1 171838Z 00013KT 16/03 A3011 RMK A01 T01620026  RH  040%=      5-min Rain = 0
KWT1 171839Z 02014KT 16/03 A3011 RMK A01 T01630026  RH  040%=      5-min Rain = 0
KWT1 171840Z 01012KT 16/02 A3011 RMK A01 T01620024  RH  040%=      5-min Rain = 0
KWT1 171841Z 02013KT 16/03 A3011 RMK A01 T01610026  RH  040%=      5-min Rain = 0
KWT1 171842Z 02012KT 16/02 A3011 RMK A01 T01620024  RH  040%=      5-min Rain = 0
KWT1 171843Z 03011KT 16/02 A3011 RMK A01 T01600023  RH  040%=      5-min Rain = 0
KWT1 171844Z 03015KT 16/03 A3011 RMK A01 T01600025  RH  040%=      5-min Rain = 0
KWT1 171845Z 01012KT 16/03 A3011 RMK A01 T01600025  RH  040%=      5-min Rain = 0
KWT1 171846Z 02012KT 16/03 A3011 RMK A01 T01590026  RH  041%=      5-min Rain = 0
KWT1 171847Z 35015KT 16/03 A3011 RMK A01 T01630027  RH  040%=      5-min Rain = 0
KWT1 171848Z 01013KT 17/03 A3011 RMK A01 T01650026  RH  039%=      5-min Rain = 0
KWT1 171849Z 03010KT 16/03 A3011 RMK A01 T01640025  RH  039%=      5-min Rain = 0
KWT1 171850Z 03012G18KT 16/03 A3011 RMK A01 T01640026  RH  040%=      5-min Rain = 0
KWT1 171851Z 02015KT 17/03 A3011 RMK A01 T01650026  RH  039%=      5-min Rain = 0
KWT1 171852Z 03013KT 16/03 A3011 RMK A01 T01630025  RH  039%=      5-min Rain = 0
KWT1 171853Z 03013KT 16/03 A301 RMK A01 T01620026  RH  040%=      5-min Rain = 0
KWT1 171854Z 04012KT 16/03 A301 RMK A01 T01620025  RH  040%=      5-min Rain = 0
KWT1 171855Z 01010G17KT 16/03 A301 RMK A01 T01620026  RH  040%=      5-min Rain = 0
KWT1 171856Z 00013KT 16/03 A301 RMK A01 T01630026  RH  040%=      5-min Rain = 0
KWT1 171857Z 02013KT 16/03 A3011 RMK A01 T01630027  RH  040%=      5-min Rain = 0
KWT1 171858Z 02012KT 16/03 A3011 RMK A01 T01640026  RH  039%=      5-min Rain = 0
KWT1 171859Z 03011KT 16/03 A3011 RMK A01 T01640026  RH  039%=      5-min Rain = 0
KWT1 171900Z 02008G13KT 16/03 A3011 RMK A01 T01620026  RH  040%=      5-min Rain = 0
KWT1 171901Z 03012KT 16/03 A3011 RMK A01 T01630027  RH  040%=      5-min Rain = 0
KWT1 171902Z 03010KT 17/03 A3011 RMK A01 T01660028  RH  040%=      5-min Rain = 0
KWT1 171903Z 03011KT 17/03 A3011 RMK A01 T01670028  RH  039%=      5-min Rain = 0
KWT1 171904Z 03008KT 17/03 A3011 RMK A01 T01650026  RH  039%=      5-min Rain = 0
KWT1 171905Z 03008KT 16/03 A3011 RMK A01 T01640026  RH  039%=      5-min Rain = 0
KWT1 171906Z 03011KT 16/03 A3011 RMK A01 T01640027  RH  040%=      5-min Rain = 0
KWT1 171907Z 03012KT 17/03 A3011 RMK A01 T01670026  RH  039%=      5-min Rain = 0
KWT1 171908Z 03010KT 17/03 A3011 RMK A01 T01670025  RH  038%=      5-min Rain = 0
KWT1 171909Z 03010G15KT 17/03 A3011 RMK A01 T01670026  RH  039%=      5-min Rain = 0
KWT1 171910Z 03009KT 17/03 A3011 RMK A01 T01690027  RH  039%=      5-min Rain = 0
KWT1 171911Z 01009KT 17/03 A3011 RMK A01 T01710028  RH  039%=      5-min Rain = 0
KWT1 171912Z 01010KT 17/03 A3011 RMK A01 T01710027  RH  038%=      5-min Rain = 0
KWT1 171913Z 01010KT 17/03 A301 RMK A01 T01690026  RH  038%=      5-min Rain = 0
KWT1 171914Z 02009KT 17/03 A3011 RMK A01 T01680026  RH  038%=      5-min Rain = 0
KWT1 171915Z 00009G15KT 17/03 A3011 RMK A01 T01660026  RH  039%=      5-min Rain = 0
KWT1 171916Z 03011KT 17/03 A3011 RMK A01 T01690026  RH  038%=      5-min Rain = 0
KWT1 171917Z 04011KT 17/03 A301 RMK A01 T01690026  RH  038%=      5-min Rain = 0
KWT1 171918Z 03011KT 17/03 A301 RMK A01 T01700027  RH  038%=      5-min Rain = 0
KWT1 171919Z 02012KT 17/03 A301 RMK A01 T01700027  RH  038%=      5-min Rain = 0
KWT1 171920Z 02013KT 17/03 A301 RMK A01 T01720028  RH  038%=      5-min Rain = 0
KWT1 171921Z 03012KT 17/03 A3011 RMK A01 T01700026  RH  038%=      5-min Rain = 0
KWT1 171922Z 03010KT 17/03 A301 RMK A01 T01670025  RH  038%=      5-min Rain = 0
KWT1 171923Z 02008KT 17/03 A301 RMK A01 T01670026  RH  039%=      5-min Rain = 0
KWT1 171924Z 04007KT 17/03 A301 RMK A01 T01660026  RH  039%=      5-min Rain = 0
KWT1 171925Z 36009KT 17/03 A3011 RMK A01 T01690028  RH  039%=      5-min Rain = 0
KWT1 171926Z 35009KT 17/03 A301 RMK A01 T01700027  RH  038%=      5-min Rain = 0
KWT1 171927Z 35008KT 17/03 A3011 RMK A01 T01690027  RH  039%=      5-min Rain = 0
KWT1 171928Z 03005KT 17/03 A3011 RMK A01 T01690028  RH  039%=      5-min Rain = 0
KWT1 171929Z 03005KT 17/03 A3011 RMK A01 T01710029  RH  039%=      5-min Rain = 0
KWT1 171930Z 02006KT 17/03 A3011 RMK A01 T01730029  RH  038%=      5-min Rain = 0
KWT1 171931Z 01006KT 17/03 A3011 RMK A01 T01730028  RH  038%=      5-min Rain = 0
KWT1 171932Z 35005KT 17/03 A301 RMK A01 T01710026  RH  038%=      5-min Rain = 0
KWT1 171933Z 03007KT 17/03 A301 RMK A01 T01700027  RH  038%=      5-min Rain = 0
KWT1 171934Z 05009KT 17/03 A301 RMK A01 T01700027  RH  038%=      5-min Rain = 0
KWT1 171935Z 03009KT 17/03 A301 RMK A01 T01710029  RH  038%=      5-min Rain = 0
KWT1 171936Z 02009KT 17/03 A301 RMK A01 T01740030  RH  038%=      5-min Rain = 0
KWT1 171937Z 03008KT 17/03 A301 RMK A01 T01740027  RH  037%=      5-min Rain = 0
KWT1 171938Z 03009KT 17/03 A301 RMK A01 T01710027  RH  038%=      5-min Rain = 0
KWT1 171939Z 03008KT 17/03 A301 RMK A01 T01700027  RH  038%=      5-min Rain = 0
KWT1 171940Z 01008KT 17/03 A301 RMK A01 T01680026  RH  039%=      5-min Rain = 0
KWT1 171941Z 00007KT 17/03 A301 RMK A01 T01690027  RH  039%=      5-min Rain = 0
KWT1 171942Z 01012KT 17/03 A301 RMK A01 T01700027  RH  039%=      5-min Rain = 0
KWT1 171943Z 02010KT 17/03 A301 RMK A01 T01710027  RH  038%=      5-min Rain = 0
KWT1 171944Z 01008KT 17/03 A301 RMK A01 T01720027  RH  038%=      5-min Rain = 0
KWT1 171945Z 02009KT 17/03 A301 RMK A01 T01740028  RH  038%=      5-min Rain = 0
KWT1 171946Z 00010KT 18/03 A301 RMK A01 T01750028  RH  037%=      5-min Rain = 0
KWT1 171947Z 35009KT 18/03 A301 RMK A01 T01750026  RH  037%=      5-min Rain = 0
KWT1 171948Z 01009KT 17/03 A301 RMK A01 T01730025  RH  037%=      5-min Rain = 0
KWT1 171949Z 02011KT 17/03 A301 RMK A01 T01730026  RH  037%=      5-min Rain = 0
KWT1 171950Z 01007KT 17/03 A301 RMK A01 T01710025  RH  038%=      5-min Rain = 0
KWT1 171951Z 03007KT 17/03 A301 RMK A01 T01690026  RH  038%=      5-min Rain = 0
KWT1 171952Z 02011KT 17/03 A301 RMK A01 T01720028  RH  038%=      5-min Rain = 0
KWT1 171953Z 35012KT 17/03 A301 RMK A01 T01720026  RH  038%=      5-min Rain = 0
KWT1 171954Z 34013G18KT 17/03 A301 RMK A01 T01720026  RH  038%=      5-min Rain = 0
KWT1 171955Z 35013KT 17/03 A301 RMK A01 T01710026  RH  038%=      5-min Rain = 0
KWT1 171956Z 01009KT 17/03 A301 RMK A01 T01700025  RH  038%=      5-min Rain = 0
KWT1 171957Z 03010KT 17/03 A301 RMK A01 T01720028  RH  038%=      5-min Rain = 0
KWT1 171958Z 03007KT 17/03 A301 RMK A01 T01740028  RH  037%=      5-min Rain = 0
KWT1 171959Z 00008KT 18/03 A301 RMK A01 T01750027  RH  037%=      5-min Rain = 0
KWT1 172000Z 01009KT 18/03 A301 RMK A01 T01750028  RH  037%=      5-min Rain = 0
KWT1 172001Z 34011KT 18/03 A301 RMK A01 T01760028  RH  037%=      5-min Rain = 0
KWT1 172002Z 34011KT 18/03 A301 RMK A01 T01750025  RH  037%=      5-min Rain = 0
KWT1 172003Z 36008KT 17/02 A301 RMK A01 T01720024  RH  037%=      5-min Rain = 0
KWT1 172004Z 01008KT 17/02 A301 RMK A01 T01710024  RH  037%=      5-min Rain = 0
KWT1 172005Z 00011KT 17/02 A301 RMK A01 T01700024  RH  037%=      5-min Rain = 0
KWT1 172006Z 01012KT 17/03 A301 RMK A01 T01710025  RH  038%=      5-min Rain = 0
KWT1 172007Z 00013KT 17/03 A3009 RMK A01 T01740027  RH  037%=      5-min Rain = 0
KWT1 172008Z 01012KT 18/03 A301 RMK A01 T01760027  RH  037%=      5-min Rain = 0
KWT1 172009Z 01012KT 18/03 A301 RMK A01 T01770026  RH  036%=      5-min Rain = 0
KWT1 172010Z 01010KT 18/03 A301 RMK A01 T01760026  RH  037%=      5-min Rain = 0
KWT1 172011Z 02014KT 18/03 A301 RMK A01 T01760026  RH  037%=      5-min Rain = 0
KWT1 172012Z 03013KT 18/02 A301 RMK A01 T01750024  RH  036%=      5-min Rain = 0
KWT1 172013Z 03012KT 18/03 A301 RMK A01 T01750025  RH  037%=      5-min Rain = 0
KWT1 172014Z 02013KT 18/03 A301 RMK A01 T01750025  RH  037%=      5-min Rain = 0
KWT1 172015Z 03012KT 18/03 A3009 RMK A01 T01750025  RH  037%=      5-min Rain = 0
KWT1 172016Z 03008KT 18/03 A3009 RMK A01 T01750025  RH  037%=      5-min Rain = 0
KWT1 172017Z 00012KT 18/03 A3009 RMK A01 T01760026  RH  037%=      5-min Rain = 0
KWT1 172018Z 36011KT 18/03 A3009 RMK A01 T01760025  RH  036%=      5-min Rain = 0
KWT1 172019Z 36012KT 18/03 A3009 RMK A01 T01760025  RH  036%=      5-min Rain = 0
KWT1 172020Z 35010KT 18/03 A3009 RMK A01 T01750025  RH  036%=      5-min Rain = 0
KWT1 172021Z 35012KT 18/03 A3009 RMK A01 T01770027  RH  036%=      5-min Rain = 0
KWT1 172022Z 00009KT 18/02 A3009 RMK A01 T01770024  RH  036%=      5-min Rain = 0
KWT1 172023Z 35007KT 18/02 A3009 RMK A01 T01750023  RH  036%=      5-min Rain = 0
KWT1 172024Z 03009KT 17/03 A3009 RMK A01 T01740025  RH  037%=      5-min Rain = 0
KWT1 172025Z 02009KT 18/03 A3009 RMK A01 T01760026  RH  037%=      5-min Rain = 0
KWT1 172026Z 02011KT 18/03 A3009 RMK A01 T01760026  RH  037%=      5-min Rain = 0
KWT1 172027Z 35013G18KT 18/03 A3009 RMK A01 T01790027  RH  036%=      5-min Rain = 0
KWT1 172028Z 00016KT 18/02 A3009 RMK A01 T01780024  RH  036%=      5-min Rain = 0
KWT1 172029Z 35013KT 18/03 A3009 RMK A01 T01770025  RH  036%=      5-min Rain = 0
KWT1 172030Z 36015KT 18/03 A3009 RMK A01 T01780025  RH  036%=      5-min Rain = 0
KWT1 172031Z 01011KT 18/02 A3009 RMK A01 T01760024  RH  036%=      5-min Rain = 0
KWT1 172032Z 01015KT 18/03 A3009 RMK A01 T01770026  RH  036%=      5-min Rain = 0
KWT1 172033Z 01011KT 18/02 A3009 RMK A01 T01750024  RH  036%=      5-min Rain = 0
KWT1 172034Z 01009KT 17/02 A3008 RMK A01 T01730024  RH  037%=      5-min Rain = 0
KWT1 172035Z 01009KT 17/02 A3008 RMK A01 T01720024  RH  037%=      5-min Rain = 0
KWT1 172036Z 01009KT 17/02 A3008 RMK A01 T01730024  RH  037%=      5-min Rain = 0
KWT1 172037Z 00011KT 17/02 A3008 RMK A01 T01730024  RH  037%=      5-min Rain = 0
KWT1 172038Z 01013KT 18/03 A3009 RMK A01 T01750025  RH  037%=      5-min Rain = 0
KWT1 172039Z 01012G17KT 18/03 A3008 RMK A01 T01750025  RH  037%=      5-min Rain = 0
KWT1 172040Z 02014KT 18/03 A3009 RMK A01 T01760026  RH  036%=      5-min Rain = 0
KWT1 172041Z 01011KT 18/03 A3008 RMK A01 T01770025  RH  036%=      5-min Rain = 0
KWT1 172042Z 00016KT 18/02 A3008 RMK A01 T01770024  RH  036%=      5-min Rain = 0
KWT1 172043Z 01015KT 18/02 A3008 RMK A01 T01750023  RH  036%=      5-min Rain = 0
KWT1 172044Z 01014KT 18/03 A3008 RMK A01 T01750025  RH  037%=      5-min Rain = 0
KWT1 172045Z 01012KT 18/03 A3008 RMK A01 T01760025  RH  036%=      5-min Rain = 0
KWT1 172046Z 01012KT 18/03 A3008 RMK A01 T01760025  RH  036%=      5-min Rain = 0
KWT1 172047Z 01008KT 18/02 A3008 RMK A01 T01760024  RH  036%=      5-min Rain = 0
KWT1 172048Z 01013KT 18/03 A3008 RMK A01 T01760025  RH  036%=      5-min Rain = 0
KWT1 172049Z 02012KT 18/03 A3008 RMK A01 T01770025  RH  036%=      5-min Rain = 0
KWT1 172050Z 02011KT 18/02 A3008 RMK A01 T01760024  RH  036%=      5-min Rain = 0
KWT1 172051Z 01010KT 18/03 A3008 RMK A01 T01760026  RH  037%=      5-min Rain = 0
KWT1 172052Z 01009KT 18/03 A3008 RMK A01 T01790027  RH  036%=      5-min Rain = 0
KWT1 172053Z 02009KT 18/03 A3008 RMK A01 T01820027  RH  035%=      5-min Rain = 0
KWT1 172054Z 03008KT 18/03 A3008 RMK A01 T01820026  RH  035%=      5-min Rain = 0
KWT1 172055Z 03011KT 18/03 A3008 RMK A01 T01820025  RH  035%=      5-min Rain = 0
KWT1 172056Z 02008KT 18/03 A3008 RMK A01 T01810025  RH  035%=      5-min Rain = 0
KWT1 172057Z 02009KT 18/03 A3009 RMK A01 T01810026  RH  035%=      5-min Rain = 0
KWT1 172058Z 01007KT 18/02 A3008 RMK A01 T01800024  RH  035%=      5-min Rain = 0
KWT1 172059Z 02009KT 18/03 A3009 RMK A01 T01800026  RH  036%=      5-min Rain = 0
KWT1 172100Z 02011KT 18/03 A3009 RMK A01 T01820027  RH  035%=      5-min Rain = 0
KWT1 172101Z 01012KT 18/03 A3009 RMK A01 T01830025  RH  035%=      5-min Rain = 0
KWT1 172102Z 01011KT 18/03 A3009 RMK A01 T01810025  RH  035%=      5-min Rain = 0
KWT1 172103Z 01012KT 18/03 A3009 RMK A01 T01800025  RH  036%=      5-min Rain = 0
KWT1 172104Z 02012KT 18/03 A3009 RMK A01 T01790025  RH  036%=      5-min Rain = 0
KWT1 172105Z 03012KT 18/03 A3009 RMK A01 T01790026  RH  036%=      5-min Rain = 0
KWT1 172106Z 02010KT 18/03 A3008 RMK A01 T01780026  RH  036%=      5-min Rain = 0
KWT1 172107Z 03011KT 18/03 A3009 RMK A01 T01790027  RH  036%=      5-min Rain = 0
KWT1 172108Z 02009KT 18/03 A3009 RMK A01 T01790026  RH  036%=      5-min Rain = 0
KWT1 172109Z 02008KT 18/03 A3008 RMK A01 T01790027  RH  036%=      5-min Rain = 0
KWT1 172110Z 00009KT 18/03 A3008 RMK A01 T01800027  RH  036%=      5-min Rain = 0
KWT1 172111Z 01008KT 18/03 A3008 RMK A01 T01800028  RH  036%=      5-min Rain = 0
KWT1 172112Z 02007KT 18/03 A3008 RMK A01 T01800026  RH  036%=      5-min Rain = 0
KWT1 172113Z 01009KT 18/03 A3008 RMK A01 T01800027  RH  036%=      5-min Rain = 0
KWT1 172114Z 01008KT 18/03 A3008 RMK A01 T01800028  RH  036%=      5-min Rain = 0
KWT1 172115Z 01010KT 18/03 A3008 RMK A01 T01840031  RH  036%=      5-min Rain = 0
KWT1 172116Z 00012KT 19/03 A3007 RMK A01 T01850029  RH  035%=      5-min Rain = 0
KWT1 172117Z 00013KT 18/03 A3007 RMK A01 T01830027  RH  035%=      5-min Rain = 0
KWT1 172118Z 00011KT 18/03 A3007 RMK A01 T01810027  RH  036%=      5-min Rain = 0
KWT1 172119Z 00011KT 18/03 A3007 RMK A01 T01810028  RH  036%=      5-min Rain = 0
KWT1 172120Z 01011KT 18/03 A3007 RMK A01 T01800027  RH  036%=      5-min Rain = 0
KWT1 172121Z 36010KT 18/03 A3007 RMK A01 T01790027  RH  036%=      5-min Rain = 0
KWT1 172122Z 02008KT 18/03 A3007 RMK A01 T01760025  RH  036%=      5-min Rain = 0
KWT1 172123Z 00010KT 18/03 A3007 RMK A01 T01770028  RH  037%=      5-min Rain = 0
KWT1 172124Z 00009G14KT 18/03 A3007 RMK A01 T01780027  RH  036%=      5-min Rain = 0
KWT1 172125Z 35009KT 18/03 A3007 RMK A01 T01760026  RH  037%=      5-min Rain = 0
KWT1 172126Z 00009KT 18/03 A3007 RMK A01 T01760027  RH  037%=      5-min Rain = 0
KWT1 172127Z 36009KT 18/03 A3007 RMK A01 T01770027  RH  037%=      5-min Rain = 0
KWT1 172128Z 00012KT 18/03 A3007 RMK A01 T01780027  RH  037%=      5-min Rain = 0
KWT1 172129Z 00012KT 18/03 A3007 RMK A01 T01770026  RH  037%=      5-min Rain = 0
KWT1 172130Z 02009KT 18/03 A3007 RMK A01 T01750026  RH  037%=      5-min Rain = 0
KWT1 172131Z 36010KT 18/03 A3007 RMK A01 T01750027  RH  037%=      5-min Rain = 0
KWT1 172132Z 36009KT 17/03 A3007 RMK A01 T01740026  RH  037%=      5-min Rain = 0
KWT1 172133Z 36008KT 17/03 A3007 RMK A01 T01730025  RH  037%=      5-min Rain = 0
KWT1 172134Z 34010KT 17/03 A3007 RMK A01 T01720025  RH  037%=      5-min Rain = 0
KWT1 172135Z 36009KT 17/02 A3007 RMK A01 T01700024  RH  037%=      5-min Rain = 0
KWT1 172136Z 01009KT 17/03 A3007 RMK A01 T01700025  RH  038%=      5-min Rain = 0
KWT1 172137Z 01011KT 17/03 A3007 RMK A01 T01720028  RH  038%=      5-min Rain = 0
KWT1 172138Z 02012KT 17/03 A3007 RMK A01 T01730027  RH  038%=      5-min Rain = 0
KWT1 172139Z 01012KT 17/03 A3007 RMK A01 T01720027  RH  038%=      5-min Rain = 0
KWT1 172140Z 01011KT 17/03 A3007 RMK A01 T01710027  RH  038%=      5-min Rain = 0
KWT1 172141Z 02010KT 17/03 A3007 RMK A01 T01710027  RH  038%=      5-min Rain = 0
KWT1 172142Z 01009KT 17/03 A3007 RMK A01 T01710027  RH  038%=      5-min Rain = 0
KWT1 172143Z 01008KT 17/03 A3007 RMK A01 T01730028  RH  038%=      5-min Rain = 0
KWT1 172144Z 01008KT 17/03 A3007 RMK A01 T01740028  RH  038%=      5-min Rain = 0
KWT1 172145Z 01007KT 18/03 A3007 RMK A01 T01750029  RH  038%=      5-min Rain = 0
KWT1 172146Z 01009KT 18/03 A3007 RMK A01 T01760028  RH  037%=      5-min Rain = 0
KWT1 172147Z 35012KT 18/03 A3007 RMK A01 T01750027  RH  037%=      5-min Rain = 0
KWT1 172148Z 36011KT 17/03 A3007 RMK A01 T01730025  RH  037%=      5-min Rain = 0
KWT1 172149Z 35012KT 17/03 A3007 RMK A01 T01710025  RH  038%=      5-min Rain = 0
KWT1 172150Z 36012KT 17/03 A3007 RMK A01 T01700025  RH  038%=      5-min Rain = 0
KWT1 172151Z 00011KT 17/02 A3007 RMK A01 T01690024  RH  038%=      5-min Rain = 0
KWT1 172152Z 00011KT 17/03 A3007 RMK A01 T01680025  RH  038%=      5-min Rain = 0
KWT1 172153Z 01012KT 17/03 A3007 RMK A01 T01680026  RH  038%=      5-min Rain = 0
KWT1 172154Z 02012KT 17/03 A3007 RMK A01 T01690027  RH  038%=      5-min Rain = 0
KWT1 172155Z 02013KT 17/03 A3007 RMK A01 T01700027  RH  038%=      5-min Rain = 0
KWT1 172156Z 02012KT 17/03 A3007 RMK A01 T01700027  RH  038%=      5-min Rain = 0
KWT1 172157Z 00012KT 17/03 A3007 RMK A01 T01700026  RH  038%=      5-min Rain = 0
KWT1 172158Z 01011KT 17/03 A3006 RMK A01 T01690027  RH  038%=      5-min Rain = 0
KWT1 172159Z 01012KT 17/03 A3006 RMK A01 T01670025  RH  038%=      5-min Rain = 0
KWT1 172200Z 01012KT 17/03 A3006 RMK A01 T01670026  RH  039%=      5-min Rain = 0
KWT1 172201Z 00010KT 17/03 A3006 RMK A01 T01680027  RH  039%=      5-min Rain = 0
KWT1 172202Z 01009KT 17/03 A3007 RMK A01 T01690027  RH  039%=      5-min Rain = 0
KWT1 172203Z 36007KT 17/03 A3006 RMK A01 T01700029  RH  039%=      5-min Rain = 0
KWT1 172204Z 01009KT 17/03 A3007 RMK A01 T01710028  RH  038%=      5-min Rain = 0
KWT1 172205Z 01009KT 17/03 A3007 RMK A01 T01710028  RH  038%=      5-min Rain = 0
KWT1 172206Z 01008KT 17/03 A3007 RMK A01 T01700028  RH  038%=      5-min Rain = 0
KWT1 172207Z 01008KT 17/03 A3007 RMK A01 T01710029  RH  039%=      5-min Rain = 0
KWT1 172208Z 01009KT 17/03 A3007 RMK A01 T01710028  RH  038%=      5-min Rain = 0
KWT1 172209Z 01011KT 17/03 A3007 RMK A01 T01710027  RH  038%=      5-min Rain = 0
KWT1 172210Z 02012KT 17/03 A3007 RMK A01 T01720027  RH  038%=      5-min Rain = 0
KWT1 172211Z 00012KT 17/03 A3007 RMK A01 T01710025  RH  038%=      5-min Rain = 0
KWT1 172212Z 00009KT 17/02 A3007 RMK A01 T01680024  RH  038%=      5-min Rain = 0
KWT1 172213Z 35009KT 17/02 A3007 RMK A01 T01670024  RH  038%=      5-min Rain = 0
KWT1 172214Z 00012KT 17/02 A3007 RMK A01 T01670024  RH  038%=      5-min Rain = 0
KWT1 172215Z 00013KT 17/02 A3007 RMK A01 T01660024  RH  039%=      5-min Rain = 0
KWT1 172216Z 00012KT 17/02 A3007 RMK A01 T01650024  RH  039%=      5-min Rain = 0
KWT1 172217Z 02011KT 17/02 A3007 RMK A01 T01660024  RH  039%=      5-min Rain = 0
KWT1 172218Z 01011KT 17/03 A3007 RMK A01 T01670025  RH  039%=      5-min Rain = 0
KWT1 172219Z 01011KT 17/03 A3007 RMK A01 T01670025  RH  038%=      5-min Rain = 0
KWT1 172220Z 01011KT 17/03 A3007 RMK A01 T01660025  RH  039%=      5-min Rain = 0
KWT1 172221Z 00009KT 17/03 A3007 RMK A01 T01660025  RH  039%=      5-min Rain = 0
KWT1 172222Z 01009KT 17/03 A3007 RMK A01 T01660025  RH  039%=      5-min Rain = 0
KWT1 172223Z 01008KT 17/03 A3007 RMK A01 T01660025  RH  039%=      5-min Rain = 0
KWT1 172224Z 01009KT 17/03 A3007 RMK A01 T01660025  RH  039%=      5-min Rain = 0
KWT1 172225Z 02009KT 17/03 A3007 RMK A01 T01660025  RH  039%=      5-min Rain = 0
KWT1 172226Z 01008KT 17/03 A3007 RMK A01 T01660026  RH  039%=      5-min Rain = 0
KWT1 172227Z 02008KT 17/03 A3007 RMK A01 T01660026  RH  039%=      5-min Rain = 0
KWT1 172228Z 01008KT 17/03 A3006 RMK A01 T01650026  RH  039%=      5-min Rain = 0
KWT1 172229Z 00010KT 17/03 A3006 RMK A01 T01650026  RH  039%=      5-min Rain = 0
KWT1 172230Z 01010KT 17/03 A3006 RMK A01 T01660026  RH  039%=      5-min Rain = 0
KWT1 172231Z 01011KT 17/03 A3006 RMK A01 T01660026  RH  039%=      5-min Rain = 0
KWT1 172232Z 01010KT 17/03 A3007 RMK A01 T01650025  RH  039%=      5-min Rain = 0
KWT1 172233Z 01011KT 16/03 A3007 RMK A01 T01640026  RH  039%=      5-min Rain = 0
KWT1 172234Z 01010KT 16/03 A3006 RMK A01 T01640026  RH  039%=      5-min Rain = 0
KWT1 172235Z 02010KT 16/03 A3006 RMK A01 T01640027  RH  040%=      5-min Rain = 0
KWT1 172236Z 01009KT 16/03 A3006 RMK A01 T01640027  RH  040%=      5-min Rain = 0
KWT1 172237Z 02011KT 16/03 A3006 RMK A01 T01640026  RH  040%=      5-min Rain = 0
KWT1 172238Z 01009KT 16/03 A3006 RMK A01 T01640026  RH  040%=      5-min Rain = 0
KWT1 172239Z 01012KT 16/03 A3006 RMK A01 T01640026  RH  040%=      5-min Rain = 0
KWT1 172240Z 01010KT 16/03 A3006 RMK A01 T01640025  RH  039%=      5-min Rain = 0
KWT1 172241Z 02011KT 16/03 A3006 RMK A01 T01630026  RH  040%=      5-min Rain = 0
KWT1 172242Z 02012KT 16/03 A3006 RMK A01 T01630025  RH  040%=      5-min Rain = 0
KWT1 172243Z 01012KT 16/03 A3006 RMK A01 T01630025  RH  040%=      5-min Rain = 0
KWT1 172244Z 01011KT 16/03 A3006 RMK A01 T01630025  RH  039%=      5-min Rain = 0
KWT1 172245Z 01012KT 16/03 A3006 RMK A01 T01620025  RH  040%=      5-min Rain = 0
KWT1 172246Z 01009KT 16/03 A3006 RMK A01 T01620025  RH  040%=      5-min Rain = 0
KWT1 172247Z 01008KT 16/03 A3006 RMK A01 T01610025  RH  040%=      5-min Rain = 0
KWT1 172248Z 00008KT 16/03 A3006 RMK A01 T01610025  RH  040%=      5-min Rain = 0
KWT1 172249Z 00010KT 16/03 A3006 RMK A01 T01600026  RH  040%=      5-min Rain = 0
KWT1 172250Z 02010KT 16/03 A3006 RMK A01 T01590026  RH  041%=      5-min Rain = 0
KWT1 172251Z 01010KT 16/03 A3006 RMK A01 T01600027  RH  041%=      5-min Rain = 0
KWT1 172252Z 01011KT 16/03 A3006 RMK A01 T01600026  RH  041%=      5-min Rain = 0
KWT1 172253Z 01009KT 16/03 A3006 RMK A01 T01590026  RH  041%=      5-min Rain = 0
KWT1 172254Z 01010KT 16/03 A3006 RMK A01 T01590026  RH  041%=      5-min Rain = 0
KWT1 172255Z 01009KT 16/03 A3006 RMK A01 T01590026  RH  041%=      5-min Rain = 0
KWT1 172256Z 01008KT 16/03 A3006 RMK A01 T01580026  RH  041%=      5-min Rain = 0
KWT1 172257Z 01007KT 16/03 A3007 RMK A01 T01580026  RH  041%=      5-min Rain = 0
KWT1 172258Z 01008KT 16/03 A3007 RMK A01 T01580026  RH  041%=      5-min Rain = 0
KWT1 172259Z 01007KT 16/03 A3007 RMK A01 T01570026  RH  041%=      5-min Rain = 0
KWT1 172300Z 02006KT 16/03 A3007 RMK A01 T01570027  RH  042%=      5-min Rain = 0
KWT1 172301Z 02006KT 16/03 A3007 RMK A01 T01560027  RH  042%=      5-min Rain = 0
KWT1 172302Z 02007KT 16/03 A3007 RMK A01 T01550026  RH  042%=      5-min Rain = 0
KWT1 172303Z 01006KT 15/03 A3007 RMK A01 T01540026  RH  042%=      5-min Rain = 0
KWT1 172304Z 01006KT 15/03 A3007 RMK A01 T01540026  RH  042%=      5-min Rain = 0
KWT1 172305Z 01006KT 15/03 A3006 RMK A01 T01530026  RH  042%=      5-min Rain = 0
KWT1 172306Z 02006KT 15/03 A3006 RMK A01 T01540027  RH  042%=      5-min Rain = 0
KWT1 172307Z 01006KT 15/03 A3006 RMK A01 T01530027  RH  042%=      5-min Rain = 0
KWT1 172308Z 01006KT 15/03 A3006 RMK A01 T01530026  RH  042%=      5-min Rain = 0
KWT1 172309Z 01007KT 15/03 A3006 RMK A01 T01520026  RH  043%=      5-min Rain = 0
KWT1 172310Z 02007KT 15/03 A3006 RMK A01 T01520026  RH  043%=      5-min Rain = 0
KWT1 172311Z 02007KT 15/03 A3006 RMK A01 T01520027  RH  043%=      5-min Rain = 0
KWT1 172312Z 01007KT 15/03 A3006 RMK A01 T01520027  RH  043%=      5-min Rain = 0
KWT1 172313Z 01005KT 15/03 A3006 RMK A01 T01520027  RH  043%=      5-min Rain = 0
KWT1 172314Z 00007KT 15/03 A3006 RMK A01 T01510026  RH  043%=      5-min Rain = 0
KWT1 172315Z 01008KT 15/03 A3007 RMK A01 T01510026  RH  043%=      5-min Rain = 0
KWT1 172316Z 01008KT 15/03 A3007 RMK A01 T01510026  RH  043%=      5-min Rain = 0
KWT1 172317Z 01007KT 15/03 A3007 RMK A01 T01520027  RH  043%=      5-min Rain = 0
KWT1 172318Z 01007KT 15/03 A3007 RMK A01 T01520026  RH  043%=      5-min Rain = 0
KWT1 172319Z 01006KT 15/03 A3007 RMK A01 T01520027  RH  043%=      5-min Rain = 0
KWT1 172320Z 01006KT 15/03 A3007 RMK A01 T01510026  RH  043%=      5-min Rain = 0
KWT1 172321Z 01007KT 15/03 A3007 RMK A01 T01500026  RH  043%=      5-min Rain = 0
KWT1 172322Z 01006KT 15/03 A3007 RMK A01 T01490026  RH  043%=      5-min Rain = 0
KWT1 172323Z 01007KT 15/03 A3007 RMK A01 T01490026  RH  044%=      5-min Rain = 0
KWT1 172324Z 01006KT 15/03 A3007 RMK A01 T01490026  RH  044%=      5-min Rain = 0
KWT1 172325Z 00006KT 15/03 A3007 RMK A01 T01480026  RH  044%=      5-min Rain = 0
KWT1 172326Z 01006KT 15/03 A3007 RMK A01 T01480026  RH  044%=      5-min Rain = 0
KWT1 172327Z 01005KT 15/03 A3007 RMK A01 T01460026  RH  044%=      5-min Rain = 0
KWT1 172328Z 01006KT 15/03 A3007 RMK A01 T01450025  RH  044%=      5-min Rain = 0
KWT1 172329Z 00006KT 15/03 A3007 RMK A01 T01460026  RH  044%=      5-min Rain = 0
KWT1 172330Z 00006KT 15/03 A3007 RMK A01 T01450026  RH  045%=      5-min Rain = 0
KWT1 172331Z 00006KT 15/03 A3007 RMK A01 T01450026  RH  045%=      5-min Rain = 0
KWT1 172332Z 00006KT 15/03 A3007 RMK A01 T01450026  RH  045%=      5-min Rain = 0
KWT1 172333Z 01006KT 15/03 A3007 RMK A01 T01450026  RH  045%=      5-min Rain = 0
KWT1 172334Z 01006KT 14/03 A3007 RMK A01 T01440026  RH  045%=      5-min Rain = 0
KWT1 172335Z 01005KT 14/03 A3007 RMK A01 T01440025  RH  045%=      5-min Rain = 0
KWT1 172336Z 01005KT 14/03 A3007 RMK A01 T01420025  RH  045%=      5-min Rain = 0
KWT1 172337Z 01006KT 14/03 A3007 RMK A01 T01420025  RH  045%=      5-min Rain = 0
KWT1 172338Z 00005KT 14/03 A3007 RMK A01 T01410025  RH  045%=      5-min Rain = 0
KWT1 172339Z 00005KT 14/03 A3007 RMK A01 T01410025  RH  045%=      5-min Rain = 0
KWT1 172340Z 36005KT 14/03 A3007 RMK A01 T01400025  RH  046%=      5-min Rain = 0
KWT1 172341Z 01006KT 14/02 A3007 RMK A01 T01390024  RH  046%=      5-min Rain = 0
KWT1 172342Z 00005KT 14/03 A3007 RMK A01 T01390025  RH  046%=      5-min Rain = 0
KWT1 172343Z 01006KT 14/02 A3007 RMK A01 T01380024  RH  046%=      5-min Rain = 0
KWT1 172344Z 01005KT 14/02 A3007 RMK A01 T01380024  RH  046%=      5-min Rain = 0
KWT1 172345Z 01005KT 14/02 A3007 RMK A01 T01370024  RH  046%=      5-min Rain = 0
KWT1 172346Z 01005KT 14/02 A3007 RMK A01 T01370024  RH  047%=      5-min Rain = 0
KWT1 172347Z 01005KT 14/02 A3007 RMK A01 T01360024  RH  047%=      5-min Rain = 0
KWT1 172348Z 02005KT 14/02 A3007 RMK A01 T01350024  RH  047%=      5-min Rain = 0
KWT1 172349Z 02005KT 14/02 A3007 RMK A01 T01350024  RH  047%=      5-min Rain = 0
KWT1 172350Z 01005KT 13/02 A3007 RMK A01 T01340024  RH  047%=      5-min Rain = 0
KWT1 172351Z 01005KT 13/02 A3007 RMK A01 T01330024  RH  047%=      5-min Rain = 0
KWT1 172352Z 01006KT 13/02 A3007 RMK A01 T01330024  RH  048%=      5-min Rain = 0
KWT1 172353Z 01005KT 13/02 A3007 RMK A01 T01320024  RH  048%=      5-min Rain = 0
KWT1 172354Z 02006KT 13/03 A3007 RMK A01 T01320025  RH  048%=      5-min Rain = 0
KWT1 172355Z 02005KT 13/02 A3007 RMK A01 T01320024  RH  048%=      5-min Rain = 0
KWT1 172356Z 02005KT 13/02 A3007 RMK A01 T01310024  RH  048%=      5-min Rain = 0
KWT1 172357Z 01005KT 13/02 A3007 RMK A01 T01310024  RH  048%=      5-min Rain = 0
KWT1 172358Z 02005KT 13/02 A3007 RMK A01 T01300024  RH  048%=      5-min Rain = 0
KWT1 172359Z 01005KT 13/02 A3008 RMK A01 T01300024  RH  049%=      5-min Rain = 0
KWT1 180000Z 01005KT 13/02 A3008 RMK A01 T01300024  RH  049%=      5-min Rain = 0
KWT1 180001Z 01005KT 13/02 A3008 RMK A01 T01290024  RH  049%=      5-min Rain = 0
KWT1 180002Z 01004KT 13/02 A3008 RMK A01 T01290024  RH  049%=      5-min Rain = 0
KWT1 180003Z 01004KT 13/02 A3008 RMK A01 T01290024  RH  049%=      5-min Rain = 0
KWT1 180004Z 01004KT 13/02 A3008 RMK A01 T01290024  RH  049%=      5-min Rain = 0
KWT1 180005Z 02004KT 13/02 A3008 RMK A01 T01290024  RH  049%=      5-min Rain = 0
KWT1 180006Z 02004KT 13/02 A3008 RMK A01 T01290024  RH  049%=      5-min Rain = 0
KWT1 180007Z 02003KT 13/02 A3008 RMK A01 T01290024  RH  049%=      5-min Rain = 0
KWT1 180008Z 02003KT 13/03 A3008 RMK A01 T01300025  RH  049%=      5-min Rain = 0
KWT1 180009Z 03002KT 13/02 A3008 RMK A01 T01300024  RH  049%=      5-min Rain = 0
KWT1 180010Z 03002KT 13/02 A3008 RMK A01 T01300024  RH  049%=      5-min Rain = 0
KWT1 180011Z 04002KT 13/03 A3008 RMK A01 T01300025  RH  049%=      5-min Rain = 0
KWT1 180012Z 04001KT 13/03 A3008 RMK A01 T01300025  RH  049%=      5-min Rain = 0
KWT1 180013Z 04001KT 13/02 A3008 RMK A01 T01290024  RH  049%=      5-min Rain = 0
KWT1 180014Z 05001KT 13/02 A3008 RMK A01 T01280024  RH  049%=      5-min Rain = 0
KWT1 180015Z 06001KT 13/02 A3009 RMK A01 T01280024  RH  049%=      5-min Rain = 0
KWT1 180016Z 07001KT 13/02 A3009 RMK A01 T01270024  RH  049%=      5-min Rain = 0
KWT1 180017Z 06002KT 13/02 A3009 RMK A01 T01270024  RH  049%=      5-min Rain = 0
KWT1 180018Z 06002KT 13/02 A3009 RMK A01 T01270024  RH  049%=      5-min Rain = 0
KWT1 180019Z 06002KT 13/02 A3009 RMK A01 T01270024  RH  049%=      5-min Rain = 0
KWT1 180020Z 05002KT 13/02 A3009 RMK A01 T01270024  RH  049%=      5-min Rain = 0
KWT1 180021Z 05002KT 13/03 A3009 RMK A01 T01280025  RH  049%=      5-min Rain = 0
KWT1 180022Z 05003KT 13/03 A3009 RMK A01 T01280025  RH  049%=      5-min Rain = 0
KWT1 180023Z 04003KT 13/03 A3009 RMK A01 T01290025  RH  049%=      5-min Rain = 0
KWT1 180024Z 04003KT 13/03 A3009 RMK A01 T01290025  RH  049%=      5-min Rain = 0
KWT1 180025Z 03004KT 13/03 A3009 RMK A01 T01290025  RH  049%=      5-min Rain = 0
KWT1 180026Z 03004KT 13/03 A3009 RMK A01 T01290025  RH  049%=      5-min Rain = 0
KWT1 180027Z 03004KT 13/03 A3009 RMK A01 T01290025  RH  049%=      5-min Rain = 0
KWT1 180028Z 02003KT 13/03 A3009 RMK A01 T01280025  RH  049%=      5-min Rain = 0
KWT1 180029Z 03004KT 13/02 A3009 RMK A01 T01270024  RH  050%=      5-min Rain = 0
KWT1 180030Z 03003KT 13/02 A3009 RMK A01 T01260024  RH  050%=      5-min Rain = 0
KWT1 180031Z 03003KT 13/02 A3009 RMK A01 T01250024  RH  050%=      5-min Rain = 0
KWT1 180032Z 03003KT 13/02 A3009 RMK A01 T01250024  RH  050%=      5-min Rain = 0
KWT1 180033Z 03004KT 13/03 A3009 RMK A01 T01250025  RH  050%=      5-min Rain = 0
KWT1 180034Z 03004KT 13/03 A3009 RMK A01 T01260025  RH  050%=      5-min Rain = 0
KWT1 180035Z 03003KT 13/03 A3009 RMK A01 T01260025  RH  050%=      5-min Rain = 0
KWT1 180036Z 03003KT 13/03 A3009 RMK A01 T01270025  RH  050%=      5-min Rain = 0
KWT1 180037Z 03003KT 13/03 A3009 RMK A01 T01260025  RH  050%=      5-min Rain = 0
KWT1 180038Z 03003KT 13/03 A3009 RMK A01 T01270025  RH  050%=      5-min Rain = 0
KWT1 180039Z 03003KT 13/03 A3009 RMK A01 T01270025  RH  050%=      5-min Rain = 0
KWT1 180040Z 03002KT 13/03 A3009 RMK A01 T01280026  RH  050%=      5-min Rain = 0
KWT1 180041Z 02002KT 13/03 A3009 RMK A01 T01270025  RH  050%=      5-min Rain = 0
KWT1 180042Z 02002KT 13/03 A3009 RMK A01 T01270025  RH  050%=      5-min Rain = 0
KWT1 180043Z 02002KT 13/03 A3009 RMK A01 T01270025  RH  050%=      5-min Rain = 0
KWT1 180044Z 02002KT 13/03 A3009 RMK A01 T01260025  RH  050%=      5-min Rain = 0
KWT1 180045Z 02002KT 13/02 A3009 RMK A01 T01250024  RH  050%=      5-min Rain = 0
KWT1 180046Z 02002KT 12/02 A3009 RMK A01 T01240024  RH  050%=      5-min Rain = 0
KWT1 180047Z 02002KT 12/03 A3009 RMK A01 T01240025  RH  051%=      5-min Rain = 0
KWT1 180048Z 02002KT 12/03 A3009 RMK A01 T01240025  RH  051%=      5-min Rain = 0
KWT1 180049Z 02002KT 12/03 A3009 RMK A01 T01240025  RH  051%=      5-min Rain = 0
KWT1 180050Z 02002KT 12/03 A3009 RMK A01 T01240025  RH  051%=      5-min Rain = 0
KWT1 180051Z 02002KT 12/03 A3009 RMK A01 T01240025  RH  051%=      5-min Rain = 0
KWT1 180052Z 02003KT 12/02 A3009 RMK A01 T01240024  RH  051%=      5-min Rain = 0
KWT1 180053Z 03002KT 12/02 A3009 RMK A01 T01230024  RH  051%=      5-min Rain = 0
KWT1 180054Z 03003KT 12/02 A3009 RMK A01 T01220024  RH  051%=      5-min Rain = 0
KWT1 180055Z 03002KT 12/02 A3009 RMK A01 T01210023  RH  051%=      5-min Rain = 0
KWT1 180056Z 03002KT 12/02 A3009 RMK A01 T01210024  RH  051%=      5-min Rain = 0
KWT1 180057Z 05002KT 12/02 A3009 RMK A01 T01210024  RH  052%=      5-min Rain = 0
KWT1 180058Z 06002KT 12/02 A301 RMK A01 T01210024  RH  052%=      5-min Rain = 0
KWT1 180059Z 07002KT 12/02 A301 RMK A01 T01190023  RH  052%=      5-min Rain = 0
KWT1 180100Z 08003KT 12/02 A301 RMK A01 T01160023  RH  053%=      5-min Rain = 0
KWT1 180101Z 10002KT 11/02 A301 RMK A01 T01130023  RH  054%=      5-min Rain = 0
KWT1 180102Z 11002KT 11/02 A301 RMK A01 T01100022  RH  054%=      5-min Rain = 0
KWT1 180103Z 12002KT 11/02 A301 RMK A01 T01090023  RH  055%=      5-min Rain = 0
KWT1 180104Z 13002KT 11/02 A301 RMK A01 T01090023  RH  056%=      5-min Rain = 0
KWT1 180105Z 15002KT 11/02 A301 RMK A01 T01100024  RH  055%=      5-min Rain = 0
KWT1 180106Z 15002KT 11/03 A301 RMK A01 T01110025  RH  055%=      5-min Rain = 0
KWT1 180107Z 16002KT 11/03 A301 RMK A01 T01130025  RH  055%=      5-min Rain = 0
KWT1 180108Z 17003KT 11/03 A301 RMK A01 T01140025  RH  054%=      5-min Rain = 0
KWT1 180109Z 17003KT 11/02 A301 RMK A01 T01140024  RH  054%=      5-min Rain = 0
KWT1 180110Z 17003KT 11/02 A301 RMK A01 T01110023  RH  055%=      5-min Rain = 0
KWT1 180111Z 17003KT 11/02 A301 RMK A01 T01090023  RH  055%=      5-min Rain = 0
KWT1 180112Z 17003KT 11/02 A301 RMK A01 T01080023  RH  056%=      5-min Rain = 0
KWT1 180113Z 17002KT 11/02 A301 RMK A01 T01070023  RH  056%=      5-min Rain = 0
KWT1 180114Z 17002KT 11/02 A301 RMK A01 T01070024  RH  056%=      5-min Rain = 0
KWT1 180115Z 17002KT 11/03 A301 RMK A01 T01090025  RH  056%=      5-min Rain = 0
KWT1 180116Z 17002KT 11/03 A301 RMK A01 T01100025  RH  056%=      5-min Rain = 0
KWT1 180117Z 17002KT 11/03 A301 RMK A01 T01110025  RH  055%=      5-min Rain = 0
KWT1 180118Z 17002KT 11/03 A301 RMK A01 T01120026  RH  055%=      5-min Rain = 0
KWT1 180119Z 17001KT 11/03 A301 RMK A01 T01140026  RH  055%=      5-min Rain = 0
KWT1 180120Z 17001KT 11/03 A301 RMK A01 T01140026  RH  054%=      5-min Rain = 0
KWT1 180121Z 17001KT 12/03 A301 RMK A01 T01150026  RH  054%=      5-min Rain = 0
KWT1 180122Z 17000KT 12/03 A301 RMK A01 T01150025  RH  054%=      5-min Rain = 0
KWT1 180123Z 00000KT 11/03 A301 RMK A01 T01140025  RH  054%=      5-min Rain = 0
KWT1 180124Z 00000KT 12/03 A301 RMK A01 T01150025  RH  054%=      5-min Rain = 0
KWT1 180125Z 00000KT 12/03 A301 RMK A01 T01150025  RH  054%=      5-min Rain = 0
KWT1 180126Z 00000KT 11/03 A301 RMK A01 T01140025  RH  054%=      5-min Rain = 0
KWT1 180127Z 00000KT 11/02 A3011 RMK A01 T01130024  RH  054%=      5-min Rain = 0
KWT1 180128Z 00000KT 11/02 A3011 RMK A01 T01110023  RH  055%=      5-min Rain = 0
KWT1 180129Z 00000KT 11/02 A3011 RMK A01 T01090023  RH  055%=      5-min Rain = 0
KWT1 180130Z 00000KT 11/02 A3011 RMK A01 T01090024  RH  056%=      5-min Rain = 0
KWT1 180131Z 00000KT 11/02 A3011 RMK A01 T01090024  RH  056%=      5-min Rain = 0
KWT1 180132Z 00000KT 11/03 A3011 RMK A01 T01100025  RH  056%=      5-min Rain = 0
KWT1 180133Z 00000KT 11/03 A3011 RMK A01 T01120026  RH  055%=      5-min Rain = 0
KWT1 180134Z 00000KT 11/03 A3011 RMK A01 T01140026  RH  055%=      5-min Rain = 0
KWT1 180135Z 00000KT 12/03 A3011 RMK A01 T01150026  RH  054%=      5-min Rain = 0
KWT1 180136Z 00000KT 12/03 A3011 RMK A01 T01160026  RH  054%=      5-min Rain = 0
KWT1 180137Z 00000KT 12/03 A3011 RMK A01 T01170026  RH  053%=      5-min Rain = 0
KWT1 180138Z 00000KT 12/03 A3011 RMK A01 T01160025  RH  053%=      5-min Rain = 0
KWT1 180139Z 17000KT 12/03 A3011 RMK A01 T01160025  RH  054%=      5-min Rain = 0
KWT1 180140Z 17001KT 12/03 A3011 RMK A01 T01160025  RH  054%=      5-min Rain = 0
KWT1 180141Z 17001KT 12/03 A3011 RMK A01 T01160025  RH  054%=      5-min Rain = 0
KWT1 180142Z 17001KT 12/03 A3011 RMK A01 T01170025  RH  053%=      5-min Rain = 0
KWT1 180143Z 17001KT 12/03 A3011 RMK A01 T01160025  RH  054%=      5-min Rain = 0
KWT1 180144Z 17002KT 12/03 A3011 RMK A01 T01160025  RH  054%=      5-min Rain = 0
KWT1 180145Z 17002KT 12/03 A3011 RMK A01 T01170025  RH  053%=      5-min Rain = 0
KWT1 180146Z 17002KT 12/03 A3011 RMK A01 T01170025  RH  053%=      5-min Rain = 0
KWT1 180147Z 18002KT 12/03 A3011 RMK A01 T01170025  RH  053%=      5-min Rain = 0
KWT1 180148Z 18001KT 12/03 A3011 RMK A01 T01170025  RH  053%=      5-min Rain = 0
KWT1 180149Z 18001KT 12/03 A3011 RMK A01 T01170025  RH  053%=      5-min Rain = 0
KWT1 180150Z 18001KT 12/03 A3011 RMK A01 T01170025  RH  053%=      5-min Rain = 0
KWT1 180151Z 18001KT 12/03 A3011 RMK A01 T01170025  RH  053%=      5-min Rain = 0
KWT1 180152Z 18001KT 12/03 A3011 RMK A01 T01180026  RH  053%=      5-min Rain = 0
KWT1 180153Z 18001KT 12/03 A3011 RMK A01 T01190026  RH  053%=      5-min Rain = 0
KWT1 180154Z 18000KT 12/03 A3011 RMK A01 T01200026  RH  053%=      5-min Rain = 0
KWT1 180155Z 18000KT 12/03 A3011 RMK A01 T01200026  RH  053%=      5-min Rain = 0
KWT1 180156Z 00000KT 12/03 A3011 RMK A01 T01200026  RH  052%=      5-min Rain = 0
KWT1 180157Z 00000KT 12/03 A3011 RMK A01 T01200026  RH  052%=      5-min Rain = 0
KWT1 180158Z 00000KT 12/03 A3011 RMK A01 T01200026  RH  052%=      5-min Rain = 0
KWT1 180159Z 18000KT 12/03 A3011 RMK A01 T01200025  RH  052%=      5-min Rain = 0
KWT1 180200Z 18000KT 12/02 A3011 RMK A01 T01170024  RH  053%=      5-min Rain = 0
KWT1 180201Z 18000KT 12/03 A3011 RMK A01 T01170025  RH  053%=      5-min Rain = 0
KWT1 180202Z 18000KT 12/03 A3011 RMK A01 T01160025  RH  053%=      5-min Rain = 0
KWT1 180203Z 18001KT 12/03 A3011 RMK A01 T01160025  RH  054%=      5-min Rain = 0
KWT1 180204Z 18001KT 12/03 A3011 RMK A01 T01150025  RH  054%=      5-min Rain = 0
KWT1 180205Z 18002KT 12/03 A3011 RMK A01 T01150025  RH  054%=      5-min Rain = 0
KWT1 180206Z 18002KT 11/03 A3011 RMK A01 T01140025  RH  054%=      5-min Rain = 0
KWT1 180207Z 18003KT 11/03 A3011 RMK A01 T01140025  RH  054%=      5-min Rain = 0
KWT1 180208Z 19003KT 11/03 A3011 RMK A01 T01130025  RH  054%=      5-min Rain = 0
KWT1 180209Z 20003KT 11/03 A3011 RMK A01 T01130025  RH  055%=      5-min Rain = 0
KWT1 180210Z 20004KT 11/03 A3011 RMK A01 T01120025  RH  055%=      5-min Rain = 0
KWT1 180211Z 20004KT 11/03 A3011 RMK A01 T01110025  RH  055%=      5-min Rain = 0
KWT1 180212Z 20004KT 11/02 A3011 RMK A01 T01100024  RH  055%=      5-min Rain = 0
KWT1 180213Z 21004KT 11/02 A3011 RMK A01 T01090024  RH  056%=      5-min Rain = 0
KWT1 180214Z 21004KT 11/02 A3011 RMK A01 T01090024  RH  056%=      5-min Rain = 0
KWT1 180215Z 21004KT 11/02 A3011 RMK A01 T01080024  RH  056%=      5-min Rain = 0
KWT1 180216Z 21004KT 11/02 A3011 RMK A01 T01080024  RH  056%=      5-min Rain = 0
KWT1 180217Z 21003KT 11/03 A3012 RMK A01 T01080025  RH  056%=      5-min Rain = 0
KWT1 180218Z 22003KT 11/03 A3012 RMK A01 T01090025  RH  056%=      5-min Rain = 0
KWT1 180219Z 22003KT 11/03 A3012 RMK A01 T01100025  RH  056%=      5-min Rain = 0
KWT1 180220Z 22003KT 11/03 A3012 RMK A01 T01090025  RH  056%=      5-min Rain = 0
KWT1 180221Z 22002KT 11/03 A3012 RMK A01 T01100025  RH  056%=      5-min Rain = 0
KWT1 180222Z 22002KT 11/03 A3012 RMK A01 T01090025  RH  056%=      5-min Rain = 0
KWT1 180223Z 23002KT 11/03 A3012 RMK A01 T01100025  RH  056%=      5-min Rain = 0
KWT1 180224Z 23002KT 11/03 A3012 RMK A01 T01090025  RH  056%=      5-min Rain = 0
KWT1 180225Z 23002KT 11/02 A3012 RMK A01 T01080024  RH  056%=      5-min Rain = 0
KWT1 180226Z 23001KT 11/02 A3012 RMK A01 T01060024  RH  057%=      5-min Rain = 0
KWT1 180227Z 23001KT 10/02 A3012 RMK A01 T01040023  RH  057%=      5-min Rain = 0
KWT1 180228Z 23001KT 10/02 A3012 RMK A01 T01040024  RH  058%=      5-min Rain = 0
KWT1 180229Z 22001KT 11/03 A3012 RMK A01 T01050025  RH  058%=      5-min Rain = 0
KWT1 180230Z 22001KT 11/03 A3012 RMK A01 T01070025  RH  057%=      5-min Rain = 0
KWT1 180231Z 22001KT 11/03 A3012 RMK A01 T01070025  RH  057%=      5-min Rain = 0
KWT1 180232Z 21002KT 11/02 A3012 RMK A01 T01070024  RH  057%=      5-min Rain = 0
KWT1 180233Z 21002KT 11/02 A3012 RMK A01 T01060024  RH  057%=      5-min Rain = 0
KWT1 180234Z 21002KT 11/02 A3012 RMK A01 T01050024  RH  057%=      5-min Rain = 0
KWT1 180235Z 21002KT 11/02 A3012 RMK A01 T01050024  RH  057%=      5-min Rain = 0
KWT1 180236Z 20002KT 11/03 A3012 RMK A01 T01060025  RH  057%=      5-min Rain = 0
KWT1 180237Z 20002KT 11/03 A3012 RMK A01 T01080025  RH  057%=      5-min Rain = 0
KWT1 180238Z 19002KT 11/03 A3012 RMK A01 T01090025  RH  056%=      5-min Rain = 0
KWT1 180239Z 18001KT 11/03 A3012 RMK A01 T01100025  RH  056%=      5-min Rain = 0
KWT1 180240Z 18001KT 11/03 A3012 RMK A01 T01110025  RH  055%=      5-min Rain = 0
KWT1 180241Z 18001KT 11/03 A3012 RMK A01 T01110025  RH  055%=      5-min Rain = 0
KWT1 180242Z 18001KT 11/03 A3012 RMK A01 T01120025  RH  055%=      5-min Rain = 0
KWT1 180243Z 18001KT 11/03 A3012 RMK A01 T01120025  RH  055%=      5-min Rain = 0
KWT1 180244Z 18001KT 11/03 A3012 RMK A01 T01120025  RH  055%=      5-min Rain = 0
KWT1 180245Z 18001KT 11/03 A3012 RMK A01 T01120025  RH  055%=      5-min Rain = 0
KWT1 180246Z 18001KT 11/02 A3012 RMK A01 T01110024  RH  055%=      5-min Rain = 0
KWT1 180247Z 18000KT 11/02 A3012 RMK A01 T01100023  RH  055%=      5-min Rain = 0
KWT1 180248Z 18000KT 11/02 A3012 RMK A01 T01080023  RH  056%=      5-min Rain = 0
KWT1 180249Z 18000KT 10/02 A3012 RMK A01 T01040022  RH  057%=      5-min Rain = 0
KWT1 180250Z 17000KT 10/02 A3012 RMK A01 T01020023  RH  058%=      5-min Rain = 0
KWT1 180251Z 13001KT 10/02 A3012 RMK A01 T01010023  RH  058%=      5-min Rain = 0
KWT1 180252Z 14001KT 10/02 A3012 RMK A01 T00990022  RH  059%=      5-min Rain = 0
KWT1 180253Z 14001KT 10/02 A3012 RMK A01 T00960022  RH  060%=      5-min Rain = 0
KWT1 180254Z 14001KT 10/02 A3012 RMK A01 T00950022  RH  060%=      5-min Rain = 0
KWT1 180255Z 14002KT 09/02 A3012 RMK A01 T00940022  RH  061%=      5-min Rain = 0
KWT1 180256Z 16002KT 09/02 A3012 RMK A01 T00930022  RH  061%=      5-min Rain = 0
KWT1 180257Z 16002KT 09/02 A3012 RMK A01 T00920022  RH  062%=      5-min Rain = 0
KWT1 180258Z 17002KT 09/02 A3012 RMK A01 T00910023  RH  062%=      5-min Rain = 0
KWT1 180259Z 16002KT 09/02 A3013 RMK A01 T00900022  RH  063%=      5-min Rain = 0
KWT1 180300Z 17001KT 09/02 A3012 RMK A01 T00890023  RH  063%=      5-min Rain = 0
KWT1 180301Z 16001KT 09/02 A3012 RMK A01 T00900023  RH  063%=      5-min Rain = 0
KWT1 180302Z 17001KT 09/02 A3013 RMK A01 T00910023  RH  063%=      5-min Rain = 0
KWT1 180303Z 17001KT 09/02 A3013 RMK A01 T00910023  RH  062%=      5-min Rain = 0
KWT1 180304Z 17001KT 09/02 A3013 RMK A01 T00900023  RH  063%=      5-min Rain = 0
KWT1 180305Z 18001KT 09/02 A3013 RMK A01 T00890022  RH  063%=      5-min Rain = 0
KWT1 180306Z 19002KT 09/02 A3013 RMK A01 T00880022  RH  063%=      5-min Rain = 0
KWT1 180307Z 19002KT 09/02 A3013 RMK A01 T00880022  RH  063%=      5-min Rain = 0
KWT1 180308Z 19002KT 09/02 A3013 RMK A01 T00900024  RH  063%=      5-min Rain = 0
KWT1 180309Z 19002KT 09/03 A3013 RMK A01 T00920025  RH  063%=      5-min Rain = 0
KWT1 180310Z 19003KT 09/02 A3013 RMK A01 T00940024  RH  062%=      5-min Rain = 0
KWT1 180311Z 20003KT 09/02 A3013 RMK A01 T00940023  RH  061%=      5-min Rain = 0
KWT1 180312Z 20003KT 09/02 A3013 RMK A01 T00940023  RH  061%=      5-min Rain = 0
KWT1 180313Z 20004KT 09/02 A3013 RMK A01 T00940023  RH  061%=      5-min Rain = 0
KWT1 180314Z 20004KT 09/02 A3013 RMK A01 T00940023  RH  061%=      5-min Rain = 0
KWT1 180315Z 20005KT 10/03 A3013 RMK A01 T00960025  RH  061%=      5-min Rain = 0
KWT1 180316Z 20004KT 10/03 A3013 RMK A01 T00980025  RH  060%=      5-min Rain = 0
KWT1 180317Z 19004KT 10/03 A3013 RMK A01 T01000025  RH  060%=      5-min Rain = 0
KWT1 180318Z 19004KT 10/02 A3013 RMK A01 T01000024  RH  059%=      5-min Rain = 0
KWT1 180319Z 19004KT 10/02 A3013 RMK A01 T01010024  RH  059%=      5-min Rain = 0
KWT1 180320Z 19004KT 10/02 A3013 RMK A01 T01010024  RH  059%=      5-min Rain = 0
KWT1 180321Z 19004KT 10/03 A3013 RMK A01 T01020025  RH  059%=      5-min Rain = 0
KWT1 180322Z 20004KT 10/02 A3013 RMK A01 T01020024  RH  058%=      5-min Rain = 0
KWT1 180323Z 20004KT 10/02 A3013 RMK A01 T01030024  RH  058%=      5-min Rain = 0
KWT1 180324Z 20004KT 10/02 A3013 RMK A01 T01020024  RH  058%=      5-min Rain = 0
KWT1 180325Z 20004KT 10/03 A3013 RMK A01 T01030025  RH  058%=      5-min Rain = 0
KWT1 180326Z 20004KT 10/03 A3013 RMK A01 T01040025  RH  058%=      5-min Rain = 0
KWT1 180327Z 20004KT 10/02 A3013 RMK A01 T01040024  RH  058%=      5-min Rain = 0
KWT1 180328Z 20004KT 11/02 A3013 RMK A01 T01050024  RH  057%=      5-min Rain = 0
KWT1 180329Z 20004KT 11/03 A3013 RMK A01 T01060025  RH  057%=      5-min Rain = 0
KWT1 180330Z 20005KT 11/03 A3013 RMK A01 T01070025  RH  057%=      5-min Rain = 0
KWT1 180331Z 20005KT 11/02 A3013 RMK A01 T01070024  RH  057%=      5-min Rain = 0
KWT1 180332Z 20005KT 11/02 A3013 RMK A01 T01060023  RH  057%=      5-min Rain = 0
KWT1 180333Z 20005KT 11/02 A3013 RMK A01 T01050024  RH  057%=      5-min Rain = 0
KWT1 180334Z 21005KT 10/02 A3013 RMK A01 T01040023  RH  057%=      5-min Rain = 0
KWT1 180335Z 21004KT 10/02 A3013 RMK A01 T01040023  RH  057%=      5-min Rain = 0
KWT1 180336Z 21004KT 10/02 A3013 RMK A01 T01030023  RH  058%=      5-min Rain = 0
KWT1 180337Z 21004KT 10/02 A3013 RMK A01 T01030023  RH  058%=      5-min Rain = 0
KWT1 180338Z 21004KT 10/02 A3013 RMK A01 T01030023  RH  058%=      5-min Rain = 0
KWT1 180339Z 21004KT 10/02 A3012 RMK A01 T01040024  RH  058%=      5-min Rain = 0
KWT1 180340Z 21003KT 10/02 A3012 RMK A01 T01040024  RH  058%=      5-min Rain = 0
KWT1 180341Z 21003KT 10/02 A3012 RMK A01 T01040024  RH  058%=      5-min Rain = 0
KWT1 180342Z 21003KT 10/02 A3013 RMK A01 T01040024  RH  058%=      5-min Rain = 0
KWT1 180343Z 21003KT 10/02 A3013 RMK A01 T01040024  RH  058%=      5-min Rain = 0
KWT1 180344Z 21003KT 10/02 A3013 RMK A01 T01030024  RH  058%=      5-min Rain = 0
KWT1 180345Z 20003KT 10/02 A3013 RMK A01 T01030024  RH  058%=      5-min Rain = 0
KWT1 180346Z 20002KT 10/02 A3013 RMK A01 T01030024  RH  058%=      5-min Rain = 0
KWT1 180347Z 20002KT 10/02 A3013 RMK A01 T01030024  RH  058%=      5-min Rain = 0
KWT1 180348Z 20002KT 10/02 A3013 RMK A01 T01020023  RH  058%=      5-min Rain = 0
KWT1 180349Z 20002KT 10/02 A3013 RMK A01 T00960021  RH  059%=      5-min Rain = 0
KWT1 180350Z 20001KT 09/02 A3012 RMK A01 T00930022  RH  061%=      5-min Rain = 0
KWT1 180351Z 20001KT 09/02 A3012 RMK A01 T00930023  RH  062%=      5-min Rain = 0
KWT1 180352Z 20002KT 09/02 A3012 RMK A01 T00920023  RH  062%=      5-min Rain = 0
KWT1 180353Z 21002KT 09/02 A3012 RMK A01 T00900022  RH  062%=      5-min Rain = 0
KWT1 180354Z 21002KT 09/02 A3012 RMK A01 T00890021  RH  063%=      5-min Rain = 0
KWT1 180355Z 20002KT 09/02 A3012 RMK A01 T00870021  RH  063%=      5-min Rain = 0
KWT1 180356Z 19002KT 09/02 A3012 RMK A01 T00870022  RH  064%=      5-min Rain = 0
KWT1 180357Z 19002KT 09/02 A3012 RMK A01 T00870022  RH  064%=      5-min Rain = 0
KWT1 180358Z 19002KT 09/02 A3012 RMK A01 T00870022  RH  064%=      5-min Rain = 0
KWT1 180359Z 18001KT 09/02 A3012 RMK A01 T00860022  RH  064%=      5-min Rain = 0
KWT1 180400Z 18001KT 09/02 A3012 RMK A01 T00850021  RH  064%=      5-min Rain = 0
KWT1 180401Z 18001KT 09/02 A3012 RMK A01 T00850022  RH  065%=      5-min Rain = 0
KWT1 180402Z 18000KT 08/02 A3012 RMK A01 T00840022  RH  065%=      5-min Rain = 0
KWT1 180403Z 18000KT 08/02 A3011 RMK A01 T00830022  RH  065%=      5-min Rain = 0
KWT1 180404Z 00000KT 08/02 A3011 RMK A01 T00830022  RH  065%=      5-min Rain = 0
KWT1 180405Z 00000KT 08/02 A3011 RMK A01 T00820021  RH  066%=      5-min Rain = 0
KWT1 180406Z 18000KT 08/02 A3011 RMK A01 T00790020  RH  066%=      5-min Rain = 0
KWT1 180407Z 04001KT 08/02 A3011 RMK A01 T00760019  RH  067%=      5-min Rain = 0
KWT1 180408Z 03002KT 07/02 A3011 RMK A01 T00720018  RH  069%=      5-min Rain = 0
KWT1 180409Z 03002KT 07/02 A3011 RMK A01 T00700019  RH  070%=      5-min Rain = 0
KWT1 180410Z 02002KT 07/02 A3011 RMK A01 T00690019  RH  071%=      5-min Rain = 0
KWT1 180411Z 02002KT 07/02 A3011 RMK A01 T00680020  RH  071%=      5-min Rain = 0
KWT1 180412Z 02003KT 07/02 A3011 RMK A01 T00680020  RH  072%=      5-min Rain = 0
KWT1 180413Z 01004KT 07/02 A301 RMK A01 T00680020  RH  072%=      5-min Rain = 0
KWT1 180414Z 01004KT 07/02 A301 RMK A01 T00680020  RH  071%=      5-min Rain = 0
KWT1 180415Z 02003KT 07/02 A301 RMK A01 T00680020  RH  071%=      5-min Rain = 0
KWT1 180416Z 02003KT 07/02 A301 RMK A01 T00660019  RH  072%=      5-min Rain = 0
KWT1 180417Z 02003KT 07/02 A301 RMK A01 T00650019  RH  072%=      5-min Rain = 0
KWT1 180418Z 02002KT 06/02 A301 RMK A01 T00640018  RH  072%=      5-min Rain = 0
KWT1 180419Z 02002KT 06/02 A301 RMK A01 T00640019  RH  073%=      5-min Rain = 0
KWT1 180420Z 02002KT 06/02 A301 RMK A01 T00640019  RH  073%=      5-min Rain = 0
KWT1 180421Z 02002KT 06/02 A301 RMK A01 T00630019  RH  073%=      5-min Rain = 0
KWT1 180422Z 02002KT 06/02 A301 RMK A01 T00630019  RH  074%=      5-min Rain = 0
KWT1 180423Z 02002KT 06/02 A301 RMK A01 T00630020  RH  074%=      5-min Rain = 0
KWT1 180424Z 03002KT 06/02 A301 RMK A01 T00630020  RH  074%=      5-min Rain = 0
KWT1 180425Z 03002KT 06/02 A301 RMK A01 T00640020  RH  074%=      5-min Rain = 0
KWT1 180426Z 02001KT 06/02 A301 RMK A01 T00630020  RH  074%=      5-min Rain = 0
KWT1 180427Z 02001KT 06/02 A301 RMK A01 T00630020  RH  074%=      5-min Rain = 0
KWT1 180428Z 02001KT 06/02 A301 RMK A01 T00630020  RH  074%=      5-min Rain = 0
KWT1 180429Z 02001KT 06/02 A301 RMK A01 T00630020  RH  074%=      5-min Rain = 0
KWT1 180430Z 02001KT 06/02 A301 RMK A01 T00630021  RH  074%=      5-min Rain = 0
KWT1 180431Z 02001KT 06/02 A301 RMK A01 T00640022  RH  074%=      5-min Rain = 0
KWT1 180432Z 02001KT 06/02 A301 RMK A01 T00640021  RH  074%=      5-min Rain = 0
KWT1 180433Z 02002KT 06/02 A301 RMK A01 T00640021  RH  074%=      5-min Rain = 0
KWT1 180434Z 02002KT 06/02 A301 RMK A01 T00640021  RH  074%=      5-min Rain = 0
KWT1 180435Z 02002KT 07/02 A301 RMK A01 T00650022  RH  074%=      5-min Rain = 0
KWT1 180436Z 02002KT 07/02 A301 RMK A01 T00650022  RH  074%=      5-min Rain = 0
KWT1 180437Z 02002KT 07/02 A301 RMK A01 T00660022  RH  074%=      5-min Rain = 0
KWT1 180438Z 02002KT 07/02 A301 RMK A01 T00670022  RH  073%=      5-min Rain = 0
KWT1 180439Z 02002KT 07/02 A301 RMK A01 T00670023  RH  073%=      5-min Rain = 0
KWT1 180440Z 02002KT 07/02 A301 RMK A01 T00690023  RH  073%=      5-min Rain = 0
KWT1 180441Z 02002KT 07/02 A301 RMK A01 T00690023  RH  073%=      5-min Rain = 0
KWT1 180442Z 02002KT 07/02 A301 RMK A01 T00700024  RH  072%=      5-min Rain = 0
KWT1 180443Z 02002KT 07/02 A301 RMK A01 T00710024  RH  072%=      5-min Rain = 0
KWT1 180444Z 02001KT 07/02 A301 RMK A01 T00720024  RH  071%=      5-min Rain = 0
KWT1 180445Z 02001KT 07/02 A301 RMK A01 T00720023  RH  071%=      5-min Rain = 0
KWT1 180446Z 02001KT 07/02 A301 RMK A01 T00730023  RH  071%=      5-min Rain = 0
KWT1 180447Z 02001KT 07/02 A301 RMK A01 T00730023  RH  071%=      5-min Rain = 0
KWT1 180448Z 03001KT 07/02 A301 RMK A01 T00740024  RH  070%=      5-min Rain = 0
KWT1 180449Z 03001KT 07/02 A301 RMK A01 T00740023  RH  070%=      5-min Rain = 0
KWT1 180450Z 03002KT 07/02 A301 RMK A01 T00740024  RH  070%=      5-min Rain = 0
KWT1 180451Z 03001KT 07/02 A301 RMK A01 T00740023  RH  070%=      5-min Rain = 0
KWT1 180452Z 03001KT 07/02 A301 RMK A01 T00740023  RH  070%=      5-min Rain = 0
KWT1 180453Z 03001KT 07/02 A301 RMK A01 T00740023  RH  070%=      5-min Rain = 0
KWT1 180454Z 03001KT 07/02 A301 RMK A01 T00740024  RH  070%=      5-min Rain = 0
KWT1 180455Z 03001KT 08/02 A301 RMK A01 T00750024  RH  070%=      5-min Rain = 0
KWT1 180456Z 03000KT 08/02 A301 RMK A01 T00750024  RH  070%=      5-min Rain = 0
KWT1 180457Z 00000KT 08/02 A301 RMK A01 T00760024  RH  070%=      5-min Rain = 0
KWT1 180458Z 00000KT 08/02 A301 RMK A01 T00770024  RH  069%=      5-min Rain = 0
KWT1 180459Z 00000KT 08/02 A301 RMK A01 T00770024  RH  069%=      5-min Rain = 0
KWT1 180500Z 00000KT 08/02 A301 RMK A01 T00770024  RH  069%=      5-min Rain = 0
KWT1 180501Z 00000KT 08/02 A301 RMK A01 T00780024  RH  069%=      5-min Rain = 0
KWT1 180502Z 00000KT 08/02 A301 RMK A01 T00790024  RH  068%=      5-min Rain = 0
KWT1 180503Z 00000KT 08/02 A301 RMK A01 T00790024  RH  068%=      5-min Rain = 0
KWT1 180504Z 00000KT 08/02 A301 RMK A01 T00790024  RH  068%=      5-min Rain = 0
KWT1 180505Z 00000KT 08/02 A301 RMK A01 T00800024  RH  068%=      5-min Rain = 0
KWT1 180506Z 00000KT 08/02 A301 RMK A01 T00800024  RH  068%=      5-min Rain = 0
KWT1 180507Z 00000KT 08/02 A301 RMK A01 T00810024  RH  067%=      5-min Rain = 0
KWT1 180508Z 00000KT 08/03 A301 RMK A01 T00820025  RH  067%=      5-min Rain = 0
KWT1 180509Z 00000KT 08/03 A301 RMK A01 T00830025  RH  067%=      5-min Rain = 0
KWT1 180510Z 00000KT 09/03 A301 RMK A01 T00850025  RH  066%=      5-min Rain = 0
KWT1 180511Z 00000KT 09/03 A301 RMK A01 T00860025  RH  066%=      5-min Rain = 0
KWT1 180512Z 00000KT 09/03 A301 RMK A01 T00870025  RH  065%=      5-min Rain = 0
KWT1 180513Z 03000KT 09/03 A301 RMK A01 T00890025  RH  064%=      5-min Rain = 0
KWT1 180514Z 03001KT 09/03 A301 RMK A01 T00900025  RH  064%=      5-min Rain = 0
KWT1 180515Z 03001KT 09/03 A301 RMK A01 T00910025  RH  063%=      5-min Rain = 0
KWT1 180516Z 15001KT 09/03 A301 RMK A01 T00920025  RH  063%=      5-min Rain = 0
KWT1 180517Z 20002KT 09/03 A301 RMK A01 T00920025  RH  063%=      5-min Rain = 0
KWT1 180518Z 20003KT 09/02 A3009 RMK A01 T00910024  RH  063%=      5-min Rain = 0
KWT1 180519Z 20003KT 09/02 A3009 RMK A01 T00890023  RH  063%=      5-min Rain = 0
KWT1 180520Z 20003KT 09/02 A3009 RMK A01 T00880024  RH  064%=      5-min Rain = 0
KWT1 180521Z 20004KT 09/02 A3009 RMK A01 T00880024  RH  064%=      5-min Rain = 0
KWT1 180522Z 21005KT 09/02 A3009 RMK A01 T00880024  RH  064%=      5-min Rain = 0
KWT1 180523Z 20005KT 09/02 A3009 RMK A01 T00860022  RH  064%=      5-min Rain = 0
KWT1 180524Z 20005KT 08/02 A3009 RMK A01 T00830020  RH  065%=      5-min Rain = 0
KWT1 180525Z 20005KT 08/02 A3009 RMK A01 T00810021  RH  066%=      5-min Rain = 0
KWT1 180526Z 20005KT 08/02 A3009 RMK A01 T00800022  RH  066%=      5-min Rain = 0
KWT1 180527Z 21005KT 08/02 A3009 RMK A01 T00800022  RH  067%=      5-min Rain = 0
KWT1 180528Z 21005KT 08/02 A3009 RMK A01 T00790022  RH  067%=      5-min Rain = 0
KWT1 180529Z 21005KT 08/02 A3009 RMK A01 T00780022  RH  067%=      5-min Rain = 0
KWT1 180530Z 21005KT 08/02 A3009 RMK A01 T00780022  RH  068%=      5-min Rain = 0
KWT1 180531Z 22006KT 08/02 A3009 RMK A01 T00780023  RH  068%=      5-min Rain = 0
KWT1 180532Z 22006KT 08/02 A3009 RMK A01 T00770023  RH  069%=      5-min Rain = 0
KWT1 180533Z 21006KT 08/02 A3009 RMK A01 T00750022  RH  069%=      5-min Rain = 0
KWT1 180534Z 22006KT 07/02 A3009 RMK A01 T00740022  RH  070%=      5-min Rain = 0
KWT1 180535Z 22006KT 07/02 A3009 RMK A01 T00730022  RH  070%=      5-min Rain = 0
KWT1 180536Z 22007KT 07/02 A3009 RMK A01 T00730023  RH  070%=      5-min Rain = 0
KWT1 180537Z 22007KT 07/02 A3009 RMK A01 T00730023  RH  070%=      5-min Rain = 0
KWT1 180538Z 23008KT 07/02 A3009 RMK A01 T00740023  RH  070%=      5-min Rain = 0
KWT1 180539Z 22008KT 07/02 A3009 RMK A01 T00740023  RH  070%=      5-min Rain = 0
KWT1 180540Z 22008KT 07/02 A3009 RMK A01 T00740023  RH  070%=      5-min Rain = 0
KWT1 180541Z 22008KT 08/02 A3009 RMK A01 T00750023  RH  070%=      5-min Rain = 0
KWT1 180542Z 22008KT 08/02 A3009 RMK A01 T00760024  RH  069%=      5-min Rain = 0
KWT1 180543Z 22009KT 08/02 A301 RMK A01 T00760024  RH  069%=      5-min Rain = 0
KWT1 180544Z 22008KT 08/02 A3009 RMK A01 T00760023  RH  069%=      5-min Rain = 0
KWT1 180545Z 22008KT 08/02 A3009 RMK A01 T00760023  RH  069%=      5-min Rain = 0
KWT1 180546Z 22008KT 08/02 A3009 RMK A01 T00750023  RH  070%=      5-min Rain = 0
KWT1 180547Z 22007KT 07/02 A3009 RMK A01 T00730023  RH  070%=      5-min Rain = 0
KWT1 180548Z 23007KT 07/02 A3009 RMK A01 T00720023  RH  071%=      5-min Rain = 0
KWT1 180549Z 23007KT 07/02 A3009 RMK A01 T00720023  RH  071%=      5-min Rain = 0
KWT1 180550Z 23007KT 07/02 A3009 RMK A01 T00710022  RH  071%=      5-min Rain = 0
KWT1 180551Z 23007KT 07/02 A3009 RMK A01 T00700022  RH  072%=      5-min Rain = 0
KWT1 180552Z 23007KT 07/02 A3009 RMK A01 T00690021  RH  072%=      5-min Rain = 0
KWT1 180553Z 23008KT 07/02 A3009 RMK A01 T00670021  RH  072%=      5-min Rain = 0
KWT1 180554Z 23008KT 07/02 A3009 RMK A01 T00650020  RH  073%=      5-min Rain = 0
KWT1 180555Z 23008KT 06/02 A3009 RMK A01 T00640020  RH  073%=      5-min Rain = 0
KWT1 180556Z 22009KT 06/02 A3009 RMK A01 T00630020  RH  074%=      5-min Rain = 0
KWT1 180557Z 22009KT 06/02 A3009 RMK A01 T00620020  RH  075%=      5-min Rain = 0
KWT1 180558Z 22008KT 06/02 A3009 RMK A01 T00610020  RH  075%=      5-min Rain = 0
KWT1 180559Z 22008KT 06/02 A3009 RMK A01 T00600020  RH  076%=      5-min Rain = 0

Page generated in 0.0787 seconds.